<?xml version="1.0" encoding="UTF-8" standalone="no" ?>
 
<gpx xmlns="http://www.topografix.com/GPX/1/1" creator="bikehike.co.uk" version="1.1" 
    xmlns:xsi="http://www.w3.org/2001/XMLSchema-instance" 
    xsi:schemaLocation="http://www.topografix.com/GPX/1/1 http://www.topografix.com/GPX/1/1/gpx.xsd">


  <trk>
    <name>cecina-grosseto</name>
    <trkseg>
      <trkpt lat="43.318588" lon="10.474411">
       <ele>-0.92</ele>
       <time>2014-11-04T15:47:36Z</time>
      </trkpt>
      <trkpt lat="43.316631" lon="10.477997">
       <ele>2.12</ele>
       <time>2014-11-04T15:48:30Z</time>
      </trkpt>
      <trkpt lat="43.314624" lon="10.481730">
       <ele>0.27</ele>
       <time>2014-11-04T15:49:26Z</time>
      </trkpt>
      <trkpt lat="43.314231" lon="10.482280">
       <ele>2.26</ele>
       <time>2014-11-04T15:49:35Z</time>
      </trkpt>
      <trkpt lat="43.313491" lon="10.482932">
       <ele>1.35</ele>
       <time>2014-11-04T15:49:50Z</time>
      </trkpt>
      <trkpt lat="43.313274" lon="10.483175">
       <ele>0.52</ele>
       <time>2014-11-04T15:49:54Z</time>
      </trkpt>
      <trkpt lat="43.312747" lon="10.484152">
       <ele>1.4</ele>
       <time>2014-11-04T15:50:09Z</time>
      </trkpt>
      <trkpt lat="43.311340" lon="10.486367">
       <ele>0.86</ele>
       <time>2014-11-04T15:50:44Z</time>
      </trkpt>
      <trkpt lat="43.311309" lon="10.486439">
       <ele>0.88</ele>
       <time>2014-11-04T15:50:45Z</time>
      </trkpt>
      <trkpt lat="43.311309" lon="10.486495">
       <ele>0.91</ele>
       <time>2014-11-04T15:50:46Z</time>
      </trkpt>
      <trkpt lat="43.311336" lon="10.486570">
       <ele>0.95</ele>
       <time>2014-11-04T15:50:47Z</time>
      </trkpt>
      <trkpt lat="43.311332" lon="10.486640">
       <ele>0.99</ele>
       <time>2014-11-04T15:50:48Z</time>
      </trkpt>
      <trkpt lat="43.311260" lon="10.486782">
       <ele>0.86</ele>
       <time>2014-11-04T15:50:50Z</time>
      </trkpt>
      <trkpt lat="43.311229" lon="10.486787">
       <ele>0.86</ele>
       <time>2014-11-04T15:50:50Z</time>
      </trkpt>
      <trkpt lat="43.310962" lon="10.487041">
       <ele>0.55</ele>
       <time>2014-11-04T15:50:56Z</time>
      </trkpt>
      <trkpt lat="43.310840" lon="10.487098">
       <ele>0.48</ele>
       <time>2014-11-04T15:50:58Z</time>
      </trkpt>
      <trkpt lat="43.310859" lon="10.487170">
       <ele>0.4</ele>
       <time>2014-11-04T15:50:59Z</time>
      </trkpt>
      <trkpt lat="43.304740" lon="10.492629">
       <ele>0.53</ele>
       <time>2014-11-04T15:53:00Z</time>
      </trkpt>
      <trkpt lat="43.304569" lon="10.492709">
       <ele>0.77</ele>
       <time>2014-11-04T15:53:03Z</time>
      </trkpt>
      <trkpt lat="43.303493" lon="10.493634">
       <ele>1.31</ele>
       <time>2014-11-04T15:53:24Z</time>
      </trkpt>
      <trkpt lat="43.303291" lon="10.493779">
       <ele>1.56</ele>
       <time>2014-11-04T15:53:28Z</time>
      </trkpt>
      <trkpt lat="43.302726" lon="10.494238">
       <ele>2.09</ele>
       <time>2014-11-04T15:53:39Z</time>
      </trkpt>
      <trkpt lat="43.302307" lon="10.494627">
       <ele>2.42</ele>
       <time>2014-11-04T15:53:47Z</time>
      </trkpt>
      <trkpt lat="43.301853" lon="10.495278">
       <ele>2.56</ele>
       <time>2014-11-04T15:53:58Z</time>
      </trkpt>
      <trkpt lat="43.301391" lon="10.495816">
       <ele>2.66</ele>
       <time>2014-11-04T15:54:08Z</time>
      </trkpt>
      <trkpt lat="43.300865" lon="10.496554">
       <ele>2.97</ele>
       <time>2014-11-04T15:54:20Z</time>
      </trkpt>
      <trkpt lat="43.300876" lon="10.496616">
       <ele>3.09</ele>
       <time>2014-11-04T15:54:21Z</time>
      </trkpt>
      <trkpt lat="43.300849" lon="10.496676">
       <ele>3.06</ele>
       <time>2014-11-04T15:54:22Z</time>
      </trkpt>
      <trkpt lat="43.300785" lon="10.496683">
       <ele>3</ele>
       <time>2014-11-04T15:54:23Z</time>
      </trkpt>
      <trkpt lat="43.300754" lon="10.496640">
       <ele>2.97</ele>
       <time>2014-11-04T15:54:24Z</time>
      </trkpt>
      <trkpt lat="43.299915" lon="10.497409">
       <ele>3.79</ele>
       <time>2014-11-04T15:54:41Z</time>
      </trkpt>
      <trkpt lat="43.299621" lon="10.497697">
       <ele>3.78</ele>
       <time>2014-11-04T15:54:47Z</time>
      </trkpt>
      <trkpt lat="43.297847" lon="10.499573">
       <ele>1.71</ele>
       <time>2014-11-04T15:55:24Z</time>
      </trkpt>
      <trkpt lat="43.297462" lon="10.500014">
       <ele>2.18</ele>
       <time>2014-11-04T15:55:32Z</time>
      </trkpt>
      <trkpt lat="43.296802" lon="10.501158">
       <ele>3.65</ele>
       <time>2014-11-04T15:55:50Z</time>
      </trkpt>
      <trkpt lat="43.295898" lon="10.502640">
       <ele>3.08</ele>
       <time>2014-11-04T15:56:13Z</time>
      </trkpt>
      <trkpt lat="43.295742" lon="10.502859">
       <ele>4.03</ele>
       <time>2014-11-04T15:56:17Z</time>
      </trkpt>
      <trkpt lat="43.295768" lon="10.502942">
       <ele>3.96</ele>
       <time>2014-11-04T15:56:18Z</time>
      </trkpt>
      <trkpt lat="43.295742" lon="10.503044">
       <ele>4.27</ele>
       <time>2014-11-04T15:56:19Z</time>
      </trkpt>
      <trkpt lat="43.295696" lon="10.503086">
       <ele>4.64</ele>
       <time>2014-11-04T15:56:20Z</time>
      </trkpt>
      <trkpt lat="43.295616" lon="10.503081">
       <ele>5.18</ele>
       <time>2014-11-04T15:56:21Z</time>
      </trkpt>
      <trkpt lat="43.295585" lon="10.503049">
       <ele>5.34</ele>
       <time>2014-11-04T15:56:22Z</time>
      </trkpt>
      <trkpt lat="43.295555" lon="10.502941">
       <ele>5.38</ele>
       <time>2014-11-04T15:56:23Z</time>
      </trkpt>
      <trkpt lat="43.295562" lon="10.502902">
       <ele>5.26</ele>
       <time>2014-11-04T15:56:24Z</time>
      </trkpt>
      <trkpt lat="43.295185" lon="10.502680">
       <ele>7.27</ele>
       <time>2014-11-04T15:56:31Z</time>
      </trkpt>
      <trkpt lat="43.294723" lon="10.502290">
       <ele>7.74</ele>
       <time>2014-11-04T15:56:40Z</time>
      </trkpt>
      <trkpt lat="43.294502" lon="10.502803">
       <ele>9.54</ele>
       <time>2014-11-04T15:56:47Z</time>
      </trkpt>
      <trkpt lat="43.293930" lon="10.503865">
       <ele>12.11</ele>
       <time>2014-11-04T15:57:03Z</time>
      </trkpt>
      <trkpt lat="43.293861" lon="10.503964">
       <ele>12.25</ele>
       <time>2014-11-04T15:57:04Z</time>
      </trkpt>
      <trkpt lat="43.293399" lon="10.504443">
       <ele>12.38</ele>
       <time>2014-11-04T15:57:14Z</time>
      </trkpt>
      <trkpt lat="43.293167" lon="10.504644">
       <ele>12.05</ele>
       <time>2014-11-04T15:57:19Z</time>
      </trkpt>
      <trkpt lat="43.292251" lon="10.506223">
       <ele>4.64</ele>
       <time>2014-11-04T15:57:43Z</time>
      </trkpt>
      <trkpt lat="43.292270" lon="10.506275">
       <ele>4.1</ele>
       <time>2014-11-04T15:57:44Z</time>
      </trkpt>
      <trkpt lat="43.292259" lon="10.506321">
       <ele>3.72</ele>
       <time>2014-11-04T15:57:44Z</time>
      </trkpt>
      <trkpt lat="43.292232" lon="10.506345">
       <ele>3.59</ele>
       <time>2014-11-04T15:57:45Z</time>
      </trkpt>
      <trkpt lat="43.292869" lon="10.508806">
       <ele>-0.44</ele>
       <time>2014-11-04T15:58:16Z</time>
      </trkpt>
      <trkpt lat="43.292873" lon="10.508917">
       <ele>-0.45</ele>
       <time>2014-11-04T15:58:18Z</time>
      </trkpt>
      <trkpt lat="43.292839" lon="10.509015">
       <ele>-0.41</ele>
       <time>2014-11-04T15:58:19Z</time>
      </trkpt>
      <trkpt lat="43.291133" lon="10.511116">
       <ele>1.09</ele>
       <time>2014-11-04T15:58:57Z</time>
      </trkpt>
      <trkpt lat="43.288677" lon="10.512541">
       <ele>-1.59</ele>
       <time>2014-11-04T15:59:41Z</time>
      </trkpt>
      <trkpt lat="43.290004" lon="10.517757">
       <ele>1.31</ele>
       <time>2014-11-04T16:00:48Z</time>
      </trkpt>
      <trkpt lat="43.291748" lon="10.525087">
       <ele>6.02</ele>
       <time>2014-11-04T16:02:21Z</time>
      </trkpt>
      <trkpt lat="43.290794" lon="10.525898">
       <ele>4.23</ele>
       <time>2014-11-04T16:02:40Z</time>
      </trkpt>
      <trkpt lat="43.290187" lon="10.526295">
       <ele>5.23</ele>
       <time>2014-11-04T16:02:51Z</time>
      </trkpt>
      <trkpt lat="43.288967" lon="10.526992">
       <ele>5.56</ele>
       <time>2014-11-04T16:03:13Z</time>
      </trkpt>
      <trkpt lat="43.288631" lon="10.527005">
       <ele>5.47</ele>
       <time>2014-11-04T16:03:18Z</time>
      </trkpt>
      <trkpt lat="43.288414" lon="10.527035">
       <ele>5.45</ele>
       <time>2014-11-04T16:03:22Z</time>
      </trkpt>
      <trkpt lat="43.288284" lon="10.527098">
       <ele>5.37</ele>
       <time>2014-11-04T16:03:24Z</time>
      </trkpt>
      <trkpt lat="43.288162" lon="10.527218">
       <ele>5.18</ele>
       <time>2014-11-04T16:03:27Z</time>
      </trkpt>
      <trkpt lat="43.288093" lon="10.527332">
       <ele>5.17</ele>
       <time>2014-11-04T16:03:28Z</time>
      </trkpt>
      <trkpt lat="43.288085" lon="10.527486">
       <ele>5.38</ele>
       <time>2014-11-04T16:03:30Z</time>
      </trkpt>
      <trkpt lat="43.288364" lon="10.528334">
       <ele>5</ele>
       <time>2014-11-04T16:03:42Z</time>
      </trkpt>
      <trkpt lat="43.288631" lon="10.529327">
       <ele>6.12</ele>
       <time>2014-11-04T16:03:54Z</time>
      </trkpt>
      <trkpt lat="43.287227" lon="10.530036">
       <ele>7.67</ele>
       <time>2014-11-04T16:04:19Z</time>
      </trkpt>
      <trkpt lat="43.286151" lon="10.530611">
       <ele>7.45</ele>
       <time>2014-11-04T16:04:38Z</time>
      </trkpt>
      <trkpt lat="43.285972" lon="10.530718">
       <ele>7.72</ele>
       <time>2014-11-04T16:04:42Z</time>
      </trkpt>
      <trkpt lat="43.285797" lon="10.530849">
       <ele>7.73</ele>
       <time>2014-11-04T16:04:45Z</time>
      </trkpt>
      <trkpt lat="43.285625" lon="10.531009">
       <ele>6.38</ele>
       <time>2014-11-04T16:04:48Z</time>
      </trkpt>
      <trkpt lat="43.285499" lon="10.531165">
       <ele>5.6</ele>
       <time>2014-11-04T16:04:51Z</time>
      </trkpt>
      <trkpt lat="43.285255" lon="10.531544">
       <ele>4.93</ele>
       <time>2014-11-04T16:04:57Z</time>
      </trkpt>
      <trkpt lat="43.285091" lon="10.531922">
       <ele>4.97</ele>
       <time>2014-11-04T16:05:03Z</time>
      </trkpt>
      <trkpt lat="43.284915" lon="10.532228">
       <ele>5.14</ele>
       <time>2014-11-04T16:05:07Z</time>
      </trkpt>
      <trkpt lat="43.284641" lon="10.532601">
       <ele>5.81</ele>
       <time>2014-11-04T16:05:14Z</time>
      </trkpt>
      <trkpt lat="43.283683" lon="10.533692">
       <ele>4.73</ele>
       <time>2014-11-04T16:05:34Z</time>
      </trkpt>
      <trkpt lat="43.282062" lon="10.535923">
       <ele>4.48</ele>
       <time>2014-11-04T16:06:12Z</time>
      </trkpt>
      <trkpt lat="43.281234" lon="10.537099">
       <ele>5</ele>
       <time>2014-11-04T16:06:32Z</time>
      </trkpt>
      <trkpt lat="43.280490" lon="10.538430">
       <ele>5.05</ele>
       <time>2014-11-04T16:06:52Z</time>
      </trkpt>
      <trkpt lat="43.280120" lon="10.538812">
       <ele>5.49</ele>
       <time>2014-11-04T16:07:00Z</time>
      </trkpt>
      <trkpt lat="43.279670" lon="10.539224">
       <ele>6.52</ele>
       <time>2014-11-04T16:07:09Z</time>
      </trkpt>
      <trkpt lat="43.278659" lon="10.540094">
       <ele>8.08</ele>
       <time>2014-11-04T16:07:29Z</time>
      </trkpt>
      <trkpt lat="43.278446" lon="10.540222">
       <ele>6.98</ele>
       <time>2014-11-04T16:07:33Z</time>
      </trkpt>
      <trkpt lat="43.278049" lon="10.540390">
       <ele>6.04</ele>
       <time>2014-11-04T16:07:40Z</time>
      </trkpt>
      <trkpt lat="43.277729" lon="10.540466">
       <ele>5.97</ele>
       <time>2014-11-04T16:07:45Z</time>
      </trkpt>
      <trkpt lat="43.275020" lon="10.541338">
       <ele>8.17</ele>
       <time>2014-11-04T16:08:31Z</time>
      </trkpt>
      <trkpt lat="43.274326" lon="10.541541">
       <ele>8.13</ele>
       <time>2014-11-04T16:08:43Z</time>
      </trkpt>
      <trkpt lat="43.273624" lon="10.541784">
       <ele>8</ele>
       <time>2014-11-04T16:08:55Z</time>
      </trkpt>
      <trkpt lat="43.271263" lon="10.542544">
       <ele>7.54</ele>
       <time>2014-11-04T16:09:35Z</time>
      </trkpt>
      <trkpt lat="43.269027" lon="10.543222">
       <ele>8.92</ele>
       <time>2014-11-04T16:10:13Z</time>
      </trkpt>
      <trkpt lat="43.266990" lon="10.543972">
       <ele>8.62</ele>
       <time>2014-11-04T16:10:48Z</time>
      </trkpt>
      <trkpt lat="43.266613" lon="10.544093">
       <ele>8.02</ele>
       <time>2014-11-04T16:10:54Z</time>
      </trkpt>
      <trkpt lat="43.266090" lon="10.544323">
       <ele>7.12</ele>
       <time>2014-11-04T16:11:04Z</time>
      </trkpt>
      <trkpt lat="43.265579" lon="10.544597">
       <ele>6.19</ele>
       <time>2014-11-04T16:11:13Z</time>
      </trkpt>
      <trkpt lat="43.265113" lon="10.544877">
       <ele>5.89</ele>
       <time>2014-11-04T16:11:21Z</time>
      </trkpt>
      <trkpt lat="43.263671" lon="10.545596">
       <ele>6.31</ele>
       <time>2014-11-04T16:11:47Z</time>
      </trkpt>
      <trkpt lat="43.262809" lon="10.545947">
       <ele>6.24</ele>
       <time>2014-11-04T16:12:01Z</time>
      </trkpt>
      <trkpt lat="43.262203" lon="10.546165">
       <ele>5.74</ele>
       <time>2014-11-04T16:12:12Z</time>
      </trkpt>
      <trkpt lat="43.260768" lon="10.546298">
       <ele>7</ele>
       <time>2014-11-04T16:12:36Z</time>
      </trkpt>
      <trkpt lat="43.260356" lon="10.546380">
       <ele>7</ele>
       <time>2014-11-04T16:12:43Z</time>
      </trkpt>
      <trkpt lat="43.259952" lon="10.546498">
       <ele>6.95</ele>
       <time>2014-11-04T16:12:49Z</time>
      </trkpt>
      <trkpt lat="43.259525" lon="10.546695">
       <ele>6.43</ele>
       <time>2014-11-04T16:12:57Z</time>
      </trkpt>
      <trkpt lat="43.258033" lon="10.547451">
       <ele>6.04</ele>
       <time>2014-11-04T16:13:23Z</time>
      </trkpt>
      <trkpt lat="43.257694" lon="10.547610">
       <ele>5.9</ele>
       <time>2014-11-04T16:13:29Z</time>
      </trkpt>
      <trkpt lat="43.257423" lon="10.547709">
       <ele>5.63</ele>
       <time>2014-11-04T16:13:34Z</time>
      </trkpt>
      <trkpt lat="43.256420" lon="10.547848">
       <ele>4.24</ele>
       <time>2014-11-04T16:13:51Z</time>
      </trkpt>
      <trkpt lat="43.256179" lon="10.547897">
       <ele>4.3</ele>
       <time>2014-11-04T16:13:55Z</time>
      </trkpt>
      <trkpt lat="43.255367" lon="10.548172">
       <ele>5.71</ele>
       <time>2014-11-04T16:14:09Z</time>
      </trkpt>
      <trkpt lat="43.254890" lon="10.548316">
       <ele>6.81</ele>
       <time>2014-11-04T16:14:17Z</time>
      </trkpt>
      <trkpt lat="43.254398" lon="10.548499">
       <ele>6.37</ele>
       <time>2014-11-04T16:14:25Z</time>
      </trkpt>
      <trkpt lat="43.252971" lon="10.549201">
       <ele>5.63</ele>
       <time>2014-11-04T16:14:50Z</time>
      </trkpt>
      <trkpt lat="43.250244" lon="10.550244">
       <ele>7.79</ele>
       <time>2014-11-04T16:15:37Z</time>
      </trkpt>
      <trkpt lat="43.249698" lon="10.550400">
       <ele>8.15</ele>
       <time>2014-11-04T16:15:46Z</time>
      </trkpt>
      <trkpt lat="43.249317" lon="10.550635">
       <ele>8.72</ele>
       <time>2014-11-04T16:15:53Z</time>
      </trkpt>
      <trkpt lat="43.249225" lon="10.550753">
       <ele>8.9</ele>
       <time>2014-11-04T16:15:55Z</time>
      </trkpt>
      <trkpt lat="43.249122" lon="10.550788">
       <ele>8.94</ele>
       <time>2014-11-04T16:15:57Z</time>
      </trkpt>
      <trkpt lat="43.248638" lon="10.550759">
       <ele>8.8</ele>
       <time>2014-11-04T16:16:05Z</time>
      </trkpt>
      <trkpt lat="43.247779" lon="10.551051">
       <ele>9.66</ele>
       <time>2014-11-04T16:16:20Z</time>
      </trkpt>
      <trkpt lat="43.247364" lon="10.551233">
       <ele>9.67</ele>
       <time>2014-11-04T16:16:27Z</time>
      </trkpt>
      <trkpt lat="43.245861" lon="10.552032">
       <ele>8.14</ele>
       <time>2014-11-04T16:16:54Z</time>
      </trkpt>
      <trkpt lat="43.245292" lon="10.552254">
       <ele>8.24</ele>
       <time>2014-11-04T16:17:04Z</time>
      </trkpt>
      <trkpt lat="43.243614" lon="10.552673">
       <ele>7.66</ele>
       <time>2014-11-04T16:17:32Z</time>
      </trkpt>
      <trkpt lat="43.243335" lon="10.552717">
       <ele>8</ele>
       <time>2014-11-04T16:17:37Z</time>
      </trkpt>
      <trkpt lat="43.243091" lon="10.552701">
       <ele>7.93</ele>
       <time>2014-11-04T16:17:41Z</time>
      </trkpt>
      <trkpt lat="43.242053" lon="10.552495">
       <ele>8</ele>
       <time>2014-11-04T16:17:58Z</time>
      </trkpt>
      <trkpt lat="43.241607" lon="10.552520">
       <ele>7.93</ele>
       <time>2014-11-04T16:18:06Z</time>
      </trkpt>
      <trkpt lat="43.241107" lon="10.552677">
       <ele>7.33</ele>
       <time>2014-11-04T16:18:14Z</time>
      </trkpt>
      <trkpt lat="43.239318" lon="10.553387">
       <ele>4.23</ele>
       <time>2014-11-04T16:18:45Z</time>
      </trkpt>
      <trkpt lat="43.238975" lon="10.553606">
       <ele>4.56</ele>
       <time>2014-11-04T16:18:51Z</time>
      </trkpt>
      <trkpt lat="43.237991" lon="10.554415">
       <ele>6.88</ele>
       <time>2014-11-04T16:19:10Z</time>
      </trkpt>
      <trkpt lat="43.237483" lon="10.554784">
       <ele>7.72</ele>
       <time>2014-11-04T16:19:20Z</time>
      </trkpt>
      <trkpt lat="43.237113" lon="10.554963">
       <ele>7.49</ele>
       <time>2014-11-04T16:19:26Z</time>
      </trkpt>
      <trkpt lat="43.236316" lon="10.555295">
       <ele>7.3</ele>
       <time>2014-11-04T16:19:40Z</time>
      </trkpt>
      <trkpt lat="43.235599" lon="10.555559">
       <ele>7.59</ele>
       <time>2014-11-04T16:19:52Z</time>
      </trkpt>
      <trkpt lat="43.235393" lon="10.555573">
       <ele>6.96</ele>
       <time>2014-11-04T16:19:56Z</time>
      </trkpt>
      <trkpt lat="43.234539" lon="10.555496">
       <ele>6.7</ele>
       <time>2014-11-04T16:20:10Z</time>
      </trkpt>
      <trkpt lat="43.234256" lon="10.555517">
       <ele>7.4</ele>
       <time>2014-11-04T16:20:15Z</time>
      </trkpt>
      <trkpt lat="43.233936" lon="10.555566">
       <ele>7.88</ele>
       <time>2014-11-04T16:20:20Z</time>
      </trkpt>
      <trkpt lat="43.233726" lon="10.555651">
       <ele>8.37</ele>
       <time>2014-11-04T16:20:24Z</time>
      </trkpt>
      <trkpt lat="43.233493" lon="10.555868">
       <ele>9.5</ele>
       <time>2014-11-04T16:20:28Z</time>
      </trkpt>
      <trkpt lat="43.232784" lon="10.556706">
       <ele>7.56</ele>
       <time>2014-11-04T16:20:44Z</time>
      </trkpt>
      <trkpt lat="43.232700" lon="10.556761">
       <ele>7.53</ele>
       <time>2014-11-04T16:20:45Z</time>
      </trkpt>
      <trkpt lat="43.229457" lon="10.558099">
       <ele>7.22</ele>
       <time>2014-11-04T16:21:42Z</time>
      </trkpt>
      <trkpt lat="43.228458" lon="10.558579">
       <ele>6.6</ele>
       <time>2014-11-04T16:21:59Z</time>
      </trkpt>
      <trkpt lat="43.225208" lon="10.560452">
       <ele>7.2</ele>
       <time>2014-11-04T16:22:58Z</time>
      </trkpt>
      <trkpt lat="43.223430" lon="10.561157">
       <ele>8.11</ele>
       <time>2014-11-04T16:23:28Z</time>
      </trkpt>
      <trkpt lat="43.222251" lon="10.561514">
       <ele>8.13</ele>
       <time>2014-11-04T16:23:48Z</time>
      </trkpt>
      <trkpt lat="43.221317" lon="10.561670">
       <ele>8.16</ele>
       <time>2014-11-04T16:24:04Z</time>
      </trkpt>
      <trkpt lat="43.216938" lon="10.562191">
       <ele>8.92</ele>
       <time>2014-11-04T16:25:17Z</time>
      </trkpt>
      <trkpt lat="43.214000" lon="10.562623">
       <ele>7.98</ele>
       <time>2014-11-04T16:26:06Z</time>
      </trkpt>
      <trkpt lat="43.203403" lon="10.564067">
       <ele>7.88</ele>
       <time>2014-11-04T16:29:03Z</time>
      </trkpt>
      <trkpt lat="43.199924" lon="10.564493">
       <ele>5.69</ele>
       <time>2014-11-04T16:30:00Z</time>
      </trkpt>
      <trkpt lat="43.195373" lon="10.565105">
       <ele>5.43</ele>
       <time>2014-11-04T16:31:16Z</time>
      </trkpt>
      <trkpt lat="43.193290" lon="10.565403">
       <ele>5.03</ele>
       <time>2014-11-04T16:31:51Z</time>
      </trkpt>
      <trkpt lat="43.182155" lon="10.566891">
       <ele>11.88</ele>
       <time>2014-11-04T16:34:57Z</time>
      </trkpt>
      <trkpt lat="43.179336" lon="10.567231">
       <ele>15.37</ele>
       <time>2014-11-04T16:35:44Z</time>
      </trkpt>
      <trkpt lat="43.178039" lon="10.567420">
       <ele>16.52</ele>
       <time>2014-11-04T16:36:05Z</time>
      </trkpt>
      <trkpt lat="43.177368" lon="10.567436">
       <ele>18.29</ele>
       <time>2014-11-04T16:36:16Z</time>
      </trkpt>
      <trkpt lat="43.176956" lon="10.567358">
       <ele>19.08</ele>
       <time>2014-11-04T16:36:23Z</time>
      </trkpt>
      <trkpt lat="43.173088" lon="10.565932">
       <ele>19.38</ele>
       <time>2014-11-04T16:37:30Z</time>
      </trkpt>
      <trkpt lat="43.170810" lon="10.565168">
       <ele>20.29</ele>
       <time>2014-11-04T16:38:09Z</time>
      </trkpt>
      <trkpt lat="43.168514" lon="10.564594">
       <ele>20.84</ele>
       <time>2014-11-04T16:38:47Z</time>
      </trkpt>
      <trkpt lat="43.166023" lon="10.564064">
       <ele>22.31</ele>
       <time>2014-11-04T16:39:29Z</time>
      </trkpt>
      <trkpt lat="43.163837" lon="10.563529">
       <ele>24.34</ele>
       <time>2014-11-04T16:40:06Z</time>
      </trkpt>
      <trkpt lat="43.159862" lon="10.562615">
       <ele>16.56</ele>
       <time>2014-11-04T16:41:13Z</time>
      </trkpt>
      <trkpt lat="43.159370" lon="10.562420">
       <ele>16.51</ele>
       <time>2014-11-04T16:41:21Z</time>
      </trkpt>
      <trkpt lat="43.158988" lon="10.562237">
       <ele>16.4</ele>
       <time>2014-11-04T16:41:28Z</time>
      </trkpt>
      <trkpt lat="43.154769" lon="10.559988">
       <ele>17.16</ele>
       <time>2014-11-04T16:42:43Z</time>
      </trkpt>
      <trkpt lat="43.154159" lon="10.559622">
       <ele>15</ele>
       <time>2014-11-04T16:42:54Z</time>
      </trkpt>
      <trkpt lat="43.151088" lon="10.557944">
       <ele>17.9</ele>
       <time>2014-11-04T16:43:49Z</time>
      </trkpt>
      <trkpt lat="43.147113" lon="10.555900">
       <ele>13.95</ele>
       <time>2014-11-04T16:44:59Z</time>
      </trkpt>
      <trkpt lat="43.144256" lon="10.554283">
       <ele>13.15</ele>
       <time>2014-11-04T16:45:51Z</time>
      </trkpt>
      <trkpt lat="43.141254" lon="10.553088">
       <ele>16.61</ele>
       <time>2014-11-04T16:46:43Z</time>
      </trkpt>
      <trkpt lat="43.133781" lon="10.550463">
       <ele>15.28</ele>
       <time>2014-11-04T16:48:51Z</time>
      </trkpt>
      <trkpt lat="43.120666" lon="10.545771">
       <ele>11.88</ele>
       <time>2014-11-04T16:52:35Z</time>
      </trkpt>
      <trkpt lat="43.119987" lon="10.545619">
       <ele>12.02</ele>
       <time>2014-11-04T16:52:47Z</time>
      </trkpt>
      <trkpt lat="43.119388" lon="10.545419">
       <ele>12.73</ele>
       <time>2014-11-04T16:52:57Z</time>
      </trkpt>
      <trkpt lat="43.119197" lon="10.545274">
       <ele>12.96</ele>
       <time>2014-11-04T16:53:01Z</time>
      </trkpt>
      <trkpt lat="43.119083" lon="10.545076">
       <ele>12.93</ele>
       <time>2014-11-04T16:53:04Z</time>
      </trkpt>
      <trkpt lat="43.118999" lon="10.544782">
       <ele>12.07</ele>
       <time>2014-11-04T16:53:07Z</time>
      </trkpt>
      <trkpt lat="43.118877" lon="10.544145">
       <ele>9.93</ele>
       <time>2014-11-04T16:53:15Z</time>
      </trkpt>
      <trkpt lat="43.118717" lon="10.543790">
       <ele>8.89</ele>
       <time>2014-11-04T16:53:21Z</time>
      </trkpt>
      <trkpt lat="43.118461" lon="10.543558">
       <ele>8.43</ele>
       <time>2014-11-04T16:53:26Z</time>
      </trkpt>
      <trkpt lat="43.118335" lon="10.543517">
       <ele>8.44</ele>
       <time>2014-11-04T16:53:28Z</time>
      </trkpt>
      <trkpt lat="43.118072" lon="10.543519">
       <ele>8.2</ele>
       <time>2014-11-04T16:53:32Z</time>
      </trkpt>
      <trkpt lat="43.116359" lon="10.544142">
       <ele>9.23</ele>
       <time>2014-11-04T16:54:02Z</time>
      </trkpt>
      <trkpt lat="43.116027" lon="10.544142">
       <ele>9.6</ele>
       <time>2014-11-04T16:54:07Z</time>
      </trkpt>
      <trkpt lat="43.113033" lon="10.543099">
       <ele>4.8</ele>
       <time>2014-11-04T16:54:58Z</time>
      </trkpt>
      <trkpt lat="43.111366" lon="10.542469">
       <ele>5.03</ele>
       <time>2014-11-04T16:55:27Z</time>
      </trkpt>
      <trkpt lat="43.107341" lon="10.541036">
       <ele>5.66</ele>
       <time>2014-11-04T16:56:36Z</time>
      </trkpt>
      <trkpt lat="43.106616" lon="10.540808">
       <ele>5.03</ele>
       <time>2014-11-04T16:56:48Z</time>
      </trkpt>
      <trkpt lat="43.106277" lon="10.540758">
       <ele>5.33</ele>
       <time>2014-11-04T16:56:54Z</time>
      </trkpt>
      <trkpt lat="43.105964" lon="10.540764">
       <ele>5.69</ele>
       <time>2014-11-04T16:56:59Z</time>
      </trkpt>
      <trkpt lat="43.105735" lon="10.540793">
       <ele>6.02</ele>
       <time>2014-11-04T16:57:03Z</time>
      </trkpt>
      <trkpt lat="43.105422" lon="10.540872">
       <ele>6.47</ele>
       <time>2014-11-04T16:57:08Z</time>
      </trkpt>
      <trkpt lat="43.105178" lon="10.541001">
       <ele>6.63</ele>
       <time>2014-11-04T16:57:13Z</time>
      </trkpt>
      <trkpt lat="43.105041" lon="10.541031">
       <ele>6.72</ele>
       <time>2014-11-04T16:57:15Z</time>
      </trkpt>
      <trkpt lat="43.105041" lon="10.541069">
       <ele>6.68</ele>
       <time>2014-11-04T16:57:15Z</time>
      </trkpt>
      <trkpt lat="43.104999" lon="10.541150">
       <ele>6.62</ele>
       <time>2014-11-04T16:57:17Z</time>
      </trkpt>
      <trkpt lat="43.104930" lon="10.541222">
       <ele>6.9</ele>
       <time>2014-11-04T16:57:18Z</time>
      </trkpt>
      <trkpt lat="43.104843" lon="10.541272">
       <ele>7.34</ele>
       <time>2014-11-04T16:57:20Z</time>
      </trkpt>
      <trkpt lat="43.104763" lon="10.541266">
       <ele>7.78</ele>
       <time>2014-11-04T16:57:21Z</time>
      </trkpt>
      <trkpt lat="43.104736" lon="10.541217">
       <ele>7.93</ele>
       <time>2014-11-04T16:57:22Z</time>
      </trkpt>
      <trkpt lat="43.104728" lon="10.541153">
       <ele>7.97</ele>
       <time>2014-11-04T16:57:22Z</time>
      </trkpt>
      <trkpt lat="43.104434" lon="10.541254">
       <ele>9.56</ele>
       <time>2014-11-04T16:57:27Z</time>
      </trkpt>
      <trkpt lat="43.104251" lon="10.541351">
       <ele>10.75</ele>
       <time>2014-11-04T16:57:31Z</time>
      </trkpt>
      <trkpt lat="43.103878" lon="10.541631">
       <ele>13.31</ele>
       <time>2014-11-04T16:57:38Z</time>
      </trkpt>
      <trkpt lat="43.103862" lon="10.541721">
       <ele>13.61</ele>
       <time>2014-11-04T16:57:39Z</time>
      </trkpt>
      <trkpt lat="43.103836" lon="10.541766">
       <ele>13.87</ele>
       <time>2014-11-04T16:57:40Z</time>
      </trkpt>
      <trkpt lat="43.103790" lon="10.541791">
       <ele>14.17</ele>
       <time>2014-11-04T16:57:40Z</time>
      </trkpt>
      <trkpt lat="43.103744" lon="10.541789">
       <ele>14.39</ele>
       <time>2014-11-04T16:57:41Z</time>
      </trkpt>
      <trkpt lat="43.103702" lon="10.541756">
       <ele>14.5</ele>
       <time>2014-11-04T16:57:42Z</time>
      </trkpt>
      <trkpt lat="43.103672" lon="10.541690">
       <ele>14.45</ele>
       <time>2014-11-04T16:57:43Z</time>
      </trkpt>
      <trkpt lat="43.103507" lon="10.541600">
       <ele>15.07</ele>
       <time>2014-11-04T16:57:46Z</time>
      </trkpt>
      <trkpt lat="43.102920" lon="10.541545">
       <ele>17.9</ele>
       <time>2014-11-04T16:57:56Z</time>
      </trkpt>
      <trkpt lat="43.102512" lon="10.541439">
       <ele>19.04</ele>
       <time>2014-11-04T16:58:02Z</time>
      </trkpt>
      <trkpt lat="43.101779" lon="10.541132">
       <ele>21.76</ele>
       <time>2014-11-04T16:58:15Z</time>
      </trkpt>
      <trkpt lat="43.101112" lon="10.540809">
       <ele>21.97</ele>
       <time>2014-11-04T16:58:27Z</time>
      </trkpt>
      <trkpt lat="43.100307" lon="10.540666">
       <ele>21.31</ele>
       <time>2014-11-04T16:58:40Z</time>
      </trkpt>
      <trkpt lat="43.099731" lon="10.540628">
       <ele>20.4</ele>
       <time>2014-11-04T16:58:50Z</time>
      </trkpt>
      <trkpt lat="43.097831" lon="10.540416">
       <ele>12.49</ele>
       <time>2014-11-04T16:59:22Z</time>
      </trkpt>
      <trkpt lat="43.097667" lon="10.540437">
       <ele>12.14</ele>
       <time>2014-11-04T16:59:24Z</time>
      </trkpt>
      <trkpt lat="43.097530" lon="10.540486">
       <ele>12.02</ele>
       <time>2014-11-04T16:59:27Z</time>
      </trkpt>
      <trkpt lat="43.097476" lon="10.540547">
       <ele>12.25</ele>
       <time>2014-11-04T16:59:28Z</time>
      </trkpt>
      <trkpt lat="43.097438" lon="10.540555">
       <ele>12.23</ele>
       <time>2014-11-04T16:59:28Z</time>
      </trkpt>
      <trkpt lat="43.097377" lon="10.540526">
       <ele>11.97</ele>
       <time>2014-11-04T16:59:29Z</time>
      </trkpt>
      <trkpt lat="43.097347" lon="10.540467">
       <ele>11.6</ele>
       <time>2014-11-04T16:59:30Z</time>
      </trkpt>
      <trkpt lat="43.097278" lon="10.540431">
       <ele>11.31</ele>
       <time>2014-11-04T16:59:32Z</time>
      </trkpt>
      <trkpt lat="43.097064" lon="10.540452">
       <ele>11.15</ele>
       <time>2014-11-04T16:59:35Z</time>
      </trkpt>
      <trkpt lat="43.096504" lon="10.540615">
       <ele>10.54</ele>
       <time>2014-11-04T16:59:45Z</time>
      </trkpt>
      <trkpt lat="43.096378" lon="10.540680">
       <ele>10.19</ele>
       <time>2014-11-04T16:59:47Z</time>
      </trkpt>
      <trkpt lat="43.096122" lon="10.540829">
       <ele>9.38</ele>
       <time>2014-11-04T16:59:51Z</time>
      </trkpt>
      <trkpt lat="43.093738" lon="10.542420">
       <ele>9.86</ele>
       <time>2014-11-04T17:00:35Z</time>
      </trkpt>
      <trkpt lat="43.093711" lon="10.542451">
       <ele>9.91</ele>
       <time>2014-11-04T17:00:36Z</time>
      </trkpt>
      <trkpt lat="43.093563" lon="10.542498">
       <ele>10</ele>
       <time>2014-11-04T17:00:39Z</time>
      </trkpt>
      <trkpt lat="43.093475" lon="10.542551">
       <ele>10.12</ele>
       <time>2014-11-04T17:00:40Z</time>
      </trkpt>
      <trkpt lat="43.093166" lon="10.542778">
       <ele>11.07</ele>
       <time>2014-11-04T17:00:46Z</time>
      </trkpt>
      <trkpt lat="43.092361" lon="10.543292">
       <ele>13.88</ele>
       <time>2014-11-04T17:01:01Z</time>
      </trkpt>
      <trkpt lat="43.089366" lon="10.545312">
       <ele>11.13</ele>
       <time>2014-11-04T17:01:56Z</time>
      </trkpt>
      <trkpt lat="43.089382" lon="10.545378">
       <ele>11.19</ele>
       <time>2014-11-04T17:01:57Z</time>
      </trkpt>
      <trkpt lat="43.089370" lon="10.545458">
       <ele>11.3</ele>
       <time>2014-11-04T17:01:58Z</time>
      </trkpt>
      <trkpt lat="43.089309" lon="10.545532">
       <ele>11.47</ele>
       <time>2014-11-04T17:01:59Z</time>
      </trkpt>
      <trkpt lat="43.089260" lon="10.545542">
       <ele>11.54</ele>
       <time>2014-11-04T17:02:00Z</time>
      </trkpt>
      <trkpt lat="43.089221" lon="10.545531">
       <ele>11.57</ele>
       <time>2014-11-04T17:02:01Z</time>
      </trkpt>
      <trkpt lat="43.089179" lon="10.545491">
       <ele>11.57</ele>
       <time>2014-11-04T17:02:02Z</time>
      </trkpt>
      <trkpt lat="43.089160" lon="10.545442">
       <ele>11.51</ele>
       <time>2014-11-04T17:02:02Z</time>
      </trkpt>
      <trkpt lat="43.085773" lon="10.547711">
       <ele>17.51</ele>
       <time>2014-11-04T17:03:05Z</time>
      </trkpt>
      <trkpt lat="43.085781" lon="10.547777">
       <ele>17.67</ele>
       <time>2014-11-04T17:03:06Z</time>
      </trkpt>
      <trkpt lat="43.085754" lon="10.547854">
       <ele>17.85</ele>
       <time>2014-11-04T17:03:07Z</time>
      </trkpt>
      <trkpt lat="43.085689" lon="10.547890">
       <ele>17.94</ele>
       <time>2014-11-04T17:03:08Z</time>
      </trkpt>
      <trkpt lat="43.085628" lon="10.547863">
       <ele>17.87</ele>
       <time>2014-11-04T17:03:09Z</time>
      </trkpt>
      <trkpt lat="43.085605" lon="10.547826">
       <ele>17.78</ele>
       <time>2014-11-04T17:03:10Z</time>
      </trkpt>
      <trkpt lat="43.084381" lon="10.548630">
       <ele>18.61</ele>
       <time>2014-11-04T17:03:32Z</time>
      </trkpt>
      <trkpt lat="43.080959" lon="10.550964">
       <ele>24.47</ele>
       <time>2014-11-04T17:04:35Z</time>
      </trkpt>
      <trkpt lat="43.079269" lon="10.552076">
       <ele>27.24</ele>
       <time>2014-11-04T17:05:07Z</time>
      </trkpt>
      <trkpt lat="43.076850" lon="10.553731">
       <ele>31.07</ele>
       <time>2014-11-04T17:05:51Z</time>
      </trkpt>
      <trkpt lat="43.076057" lon="10.554252">
       <ele>30.51</ele>
       <time>2014-11-04T17:06:06Z</time>
      </trkpt>
      <trkpt lat="43.071678" lon="10.557265">
       <ele>35.42</ele>
       <time>2014-11-04T17:07:27Z</time>
      </trkpt>
      <trkpt lat="43.067745" lon="10.560004">
       <ele>31.89</ele>
       <time>2014-11-04T17:08:40Z</time>
      </trkpt>
      <trkpt lat="43.067367" lon="10.560173">
       <ele>31.26</ele>
       <time>2014-11-04T17:08:47Z</time>
      </trkpt>
      <trkpt lat="43.066699" lon="10.560223">
       <ele>30.57</ele>
       <time>2014-11-04T17:08:58Z</time>
      </trkpt>
      <trkpt lat="43.065711" lon="10.560036">
       <ele>26.36</ele>
       <time>2014-11-04T17:09:15Z</time>
      </trkpt>
      <trkpt lat="43.065326" lon="10.559935">
       <ele>27.1</ele>
       <time>2014-11-04T17:09:21Z</time>
      </trkpt>
      <trkpt lat="43.064941" lon="10.560024">
       <ele>28</ele>
       <time>2014-11-04T17:09:28Z</time>
      </trkpt>
      <trkpt lat="43.064670" lon="10.560189">
       <ele>28.09</ele>
       <time>2014-11-04T17:09:33Z</time>
      </trkpt>
      <trkpt lat="43.064407" lon="10.560589">
       <ele>28.5</ele>
       <time>2014-11-04T17:09:39Z</time>
      </trkpt>
      <trkpt lat="43.064266" lon="10.560931">
       <ele>28.89</ele>
       <time>2014-11-04T17:09:44Z</time>
      </trkpt>
      <trkpt lat="43.064044" lon="10.561734">
       <ele>29.15</ele>
       <time>2014-11-04T17:09:54Z</time>
      </trkpt>
      <trkpt lat="43.063819" lon="10.562357">
       <ele>31.21</ele>
       <time>2014-11-04T17:10:03Z</time>
      </trkpt>
      <trkpt lat="43.063381" lon="10.563010">
       <ele>32.01</ele>
       <time>2014-11-04T17:10:13Z</time>
      </trkpt>
      <trkpt lat="43.062713" lon="10.563535">
       <ele>33.29</ele>
       <time>2014-11-04T17:10:26Z</time>
      </trkpt>
      <trkpt lat="43.061374" lon="10.564388">
       <ele>34.02</ele>
       <time>2014-11-04T17:10:51Z</time>
      </trkpt>
      <trkpt lat="43.060161" lon="10.565263">
       <ele>36.82</ele>
       <time>2014-11-04T17:11:13Z</time>
      </trkpt>
      <trkpt lat="43.057563" lon="10.567063">
       <ele>43.48</ele>
       <time>2014-11-04T17:12:02Z</time>
      </trkpt>
      <trkpt lat="43.057140" lon="10.567473">
       <ele>42.67</ele>
       <time>2014-11-04T17:12:10Z</time>
      </trkpt>
      <trkpt lat="43.054828" lon="10.569952">
       <ele>41.1</ele>
       <time>2014-11-04T17:12:59Z</time>
      </trkpt>
      <trkpt lat="43.050239" lon="10.575298">
       <ele>52.75</ele>
       <time>2014-11-04T17:14:39Z</time>
      </trkpt>
      <trkpt lat="43.047554" lon="10.578536">
       <ele>43.99</ele>
       <time>2014-11-04T17:15:38Z</time>
      </trkpt>
      <trkpt lat="43.044052" lon="10.582949">
       <ele>36.67</ele>
       <time>2014-11-04T17:16:57Z</time>
      </trkpt>
      <trkpt lat="43.040779" lon="10.587120">
       <ele>31.72</ele>
       <time>2014-11-04T17:18:12Z</time>
      </trkpt>
      <trkpt lat="43.039215" lon="10.588959">
       <ele>25.88</ele>
       <time>2014-11-04T17:18:46Z</time>
      </trkpt>
      <trkpt lat="43.036495" lon="10.592296">
       <ele>16.4</ele>
       <time>2014-11-04T17:19:46Z</time>
      </trkpt>
      <trkpt lat="43.034721" lon="10.594532">
       <ele>15.25</ele>
       <time>2014-11-04T17:20:26Z</time>
      </trkpt>
      <trkpt lat="43.032173" lon="10.597636">
       <ele>14.38</ele>
       <time>2014-11-04T17:21:23Z</time>
      </trkpt>
      <trkpt lat="43.032081" lon="10.597818">
       <ele>14.38</ele>
       <time>2014-11-04T17:21:26Z</time>
      </trkpt>
      <trkpt lat="43.032062" lon="10.597949">
       <ele>14.49</ele>
       <time>2014-11-04T17:21:27Z</time>
      </trkpt>
      <trkpt lat="43.032085" lon="10.597996">
       <ele>14.6</ele>
       <time>2014-11-04T17:21:28Z</time>
      </trkpt>
      <trkpt lat="43.032081" lon="10.598095">
       <ele>14.71</ele>
       <time>2014-11-04T17:21:29Z</time>
      </trkpt>
      <trkpt lat="43.032028" lon="10.598169">
       <ele>14.67</ele>
       <time>2014-11-04T17:21:30Z</time>
      </trkpt>
      <trkpt lat="43.031955" lon="10.598172">
       <ele>14.5</ele>
       <time>2014-11-04T17:21:32Z</time>
      </trkpt>
      <trkpt lat="43.031917" lon="10.598137">
       <ele>14.37</ele>
       <time>2014-11-04T17:21:32Z</time>
      </trkpt>
      <trkpt lat="43.031818" lon="10.598155">
       <ele>14.15</ele>
       <time>2014-11-04T17:21:34Z</time>
      </trkpt>
      <trkpt lat="43.031723" lon="10.598196">
       <ele>13.97</ele>
       <time>2014-11-04T17:21:36Z</time>
      </trkpt>
      <trkpt lat="43.030883" lon="10.599205">
       <ele>13.11</ele>
       <time>2014-11-04T17:21:54Z</time>
      </trkpt>
      <trkpt lat="43.030895" lon="10.599267">
       <ele>13.19</ele>
       <time>2014-11-04T17:21:55Z</time>
      </trkpt>
      <trkpt lat="43.030872" lon="10.599340">
       <ele>13.26</ele>
       <time>2014-11-04T17:21:56Z</time>
      </trkpt>
      <trkpt lat="43.030815" lon="10.599372">
       <ele>13.24</ele>
       <time>2014-11-04T17:21:57Z</time>
      </trkpt>
      <trkpt lat="43.030765" lon="10.599351">
       <ele>13.2</ele>
       <time>2014-11-04T17:21:58Z</time>
      </trkpt>
      <trkpt lat="43.030735" lon="10.599274">
       <ele>13.11</ele>
       <time>2014-11-04T17:21:59Z</time>
      </trkpt>
      <trkpt lat="43.030750" lon="10.599191">
       <ele>13.03</ele>
       <time>2014-11-04T17:22:00Z</time>
      </trkpt>
      <trkpt lat="43.030773" lon="10.599167">
       <ele>13</ele>
       <time>2014-11-04T17:22:00Z</time>
      </trkpt>
      <trkpt lat="43.030441" lon="10.598755">
       <ele>13</ele>
       <time>2014-11-04T17:22:08Z</time>
      </trkpt>
      <trkpt lat="43.030216" lon="10.598554">
       <ele>13</ele>
       <time>2014-11-04T17:22:12Z</time>
      </trkpt>
      <trkpt lat="43.030059" lon="10.598510">
       <ele>13</ele>
       <time>2014-11-04T17:22:15Z</time>
      </trkpt>
      <trkpt lat="43.030014" lon="10.598548">
       <ele>13</ele>
       <time>2014-11-04T17:22:16Z</time>
      </trkpt>
      <trkpt lat="43.029945" lon="10.598552">
       <ele>12.89</ele>
       <time>2014-11-04T17:22:17Z</time>
      </trkpt>
      <trkpt lat="43.029891" lon="10.598509">
       <ele>12.77</ele>
       <time>2014-11-04T17:22:18Z</time>
      </trkpt>
      <trkpt lat="43.029857" lon="10.598397">
       <ele>12.67</ele>
       <time>2014-11-04T17:22:20Z</time>
      </trkpt>
      <trkpt lat="43.029724" lon="10.598217">
       <ele>12.43</ele>
       <time>2014-11-04T17:22:23Z</time>
      </trkpt>
      <trkpt lat="43.029670" lon="10.598167">
       <ele>12.33</ele>
       <time>2014-11-04T17:22:24Z</time>
      </trkpt>
      <trkpt lat="43.029567" lon="10.598113">
       <ele>12.09</ele>
       <time>2014-11-04T17:22:26Z</time>
      </trkpt>
      <trkpt lat="43.029502" lon="10.598116">
       <ele>11.91</ele>
       <time>2014-11-04T17:22:27Z</time>
      </trkpt>
      <trkpt lat="43.029434" lon="10.598175">
       <ele>11.7</ele>
       <time>2014-11-04T17:22:28Z</time>
      </trkpt>
      <trkpt lat="43.027591" lon="10.600298">
       <ele>10.79</ele>
       <time>2014-11-04T17:23:08Z</time>
      </trkpt>
      <trkpt lat="43.026248" lon="10.601730">
       <ele>10.46</ele>
       <time>2014-11-04T17:23:36Z</time>
      </trkpt>
      <trkpt lat="43.026191" lon="10.601819">
       <ele>10.44</ele>
       <time>2014-11-04T17:23:38Z</time>
      </trkpt>
      <trkpt lat="43.026145" lon="10.601942">
       <ele>10.34</ele>
       <time>2014-11-04T17:23:39Z</time>
      </trkpt>
      <trkpt lat="43.026142" lon="10.602025">
       <ele>10.25</ele>
       <time>2014-11-04T17:23:40Z</time>
      </trkpt>
      <trkpt lat="43.026195" lon="10.602087">
       <ele>10.21</ele>
       <time>2014-11-04T17:23:41Z</time>
      </trkpt>
      <trkpt lat="43.027481" lon="10.603069">
       <ele>11.29</ele>
       <time>2014-11-04T17:24:06Z</time>
      </trkpt>
      <trkpt lat="43.027648" lon="10.603221">
       <ele>11.31</ele>
       <time>2014-11-04T17:24:09Z</time>
      </trkpt>
      <trkpt lat="43.026206" lon="10.605044">
       <ele>10.07</ele>
       <time>2014-11-04T17:24:42Z</time>
      </trkpt>
      <trkpt lat="43.024524" lon="10.607073">
       <ele>10.63</ele>
       <time>2014-11-04T17:25:19Z</time>
      </trkpt>
      <trkpt lat="43.023811" lon="10.607986">
       <ele>9.81</ele>
       <time>2014-11-04T17:25:35Z</time>
      </trkpt>
      <trkpt lat="43.022754" lon="10.609169">
       <ele>10.69</ele>
       <time>2014-11-04T17:25:58Z</time>
      </trkpt>
      <trkpt lat="43.020313" lon="10.612323">
       <ele>10.84</ele>
       <time>2014-11-04T17:26:54Z</time>
      </trkpt>
      <trkpt lat="43.019226" lon="10.613592">
       <ele>12.48</ele>
       <time>2014-11-04T17:27:17Z</time>
      </trkpt>
      <trkpt lat="43.016239" lon="10.617221">
       <ele>9.33</ele>
       <time>2014-11-04T17:28:24Z</time>
      </trkpt>
      <trkpt lat="43.007946" lon="10.627445">
       <ele>11.93</ele>
       <time>2014-11-04T17:31:29Z</time>
      </trkpt>
      <trkpt lat="43.001502" lon="10.635457">
       <ele>8.66</ele>
       <time>2014-11-04T17:33:53Z</time>
      </trkpt>
      <trkpt lat="43.001266" lon="10.635725">
       <ele>9.29</ele>
       <time>2014-11-04T17:33:58Z</time>
      </trkpt>
      <trkpt lat="42.999103" lon="10.638378">
       <ele>8.1</ele>
       <time>2014-11-04T17:34:46Z</time>
      </trkpt>
      <trkpt lat="42.991939" lon="10.647275">
       <ele>8.57</ele>
       <time>2014-11-04T17:37:27Z</time>
      </trkpt>
      <trkpt lat="42.983165" lon="10.658110">
       <ele>7.8</ele>
       <time>2014-11-04T17:40:43Z</time>
      </trkpt>
      <trkpt lat="42.980491" lon="10.661452">
       <ele>6.88</ele>
       <time>2014-11-04T17:41:43Z</time>
      </trkpt>
      <trkpt lat="42.977634" lon="10.664964">
       <ele>9.79</ele>
       <time>2014-11-04T17:42:47Z</time>
      </trkpt>
      <trkpt lat="42.972438" lon="10.671412">
       <ele>10.62</ele>
       <time>2014-11-04T17:44:43Z</time>
      </trkpt>
      <trkpt lat="42.972316" lon="10.671635">
       <ele>10.74</ele>
       <time>2014-11-04T17:44:47Z</time>
      </trkpt>
      <trkpt lat="42.971904" lon="10.672182">
       <ele>10.73</ele>
       <time>2014-11-04T17:44:56Z</time>
      </trkpt>
      <trkpt lat="42.971771" lon="10.672472">
       <ele>10.97</ele>
       <time>2014-11-04T17:45:00Z</time>
      </trkpt>
      <trkpt lat="42.971767" lon="10.672636">
       <ele>10.86</ele>
       <time>2014-11-04T17:45:02Z</time>
      </trkpt>
      <trkpt lat="42.971714" lon="10.672765">
       <ele>10.7</ele>
       <time>2014-11-04T17:45:04Z</time>
      </trkpt>
      <trkpt lat="42.971607" lon="10.672861">
       <ele>10.53</ele>
       <time>2014-11-04T17:45:06Z</time>
      </trkpt>
      <trkpt lat="42.971466" lon="10.672862">
       <ele>10.43</ele>
       <time>2014-11-04T17:45:09Z</time>
      </trkpt>
      <trkpt lat="42.971366" lon="10.672775">
       <ele>10.43</ele>
       <time>2014-11-04T17:45:11Z</time>
      </trkpt>
      <trkpt lat="42.971294" lon="10.672591">
       <ele>10.49</ele>
       <time>2014-11-04T17:45:13Z</time>
      </trkpt>
      <trkpt lat="42.971309" lon="10.672418">
       <ele>10.52</ele>
       <time>2014-11-04T17:45:15Z</time>
      </trkpt>
      <trkpt lat="42.971275" lon="10.672233">
       <ele>10.36</ele>
       <time>2014-11-04T17:45:18Z</time>
      </trkpt>
      <trkpt lat="42.971157" lon="10.672011">
       <ele>10.16</ele>
       <time>2014-11-04T17:45:21Z</time>
      </trkpt>
      <trkpt lat="42.970771" lon="10.671446">
       <ele>9.75</ele>
       <time>2014-11-04T17:45:30Z</time>
      </trkpt>
      <trkpt lat="42.970558" lon="10.671216">
       <ele>9.64</ele>
       <time>2014-11-04T17:45:35Z</time>
      </trkpt>
      <trkpt lat="42.970359" lon="10.670879">
       <ele>9.59</ele>
       <time>2014-11-04T17:45:40Z</time>
      </trkpt>
      <trkpt lat="42.970306" lon="10.670640">
       <ele>9.34</ele>
       <time>2014-11-04T17:45:43Z</time>
      </trkpt>
      <trkpt lat="42.970321" lon="10.670513">
       <ele>9.14</ele>
       <time>2014-11-04T17:45:45Z</time>
      </trkpt>
      <trkpt lat="42.970340" lon="10.670482">
       <ele>9.09</ele>
       <time>2014-11-04T17:45:45Z</time>
      </trkpt>
      <trkpt lat="42.970310" lon="10.670095">
       <ele>8.52</ele>
       <time>2014-11-04T17:45:50Z</time>
      </trkpt>
      <trkpt lat="42.970237" lon="10.669638">
       <ele>8.97</ele>
       <time>2014-11-04T17:45:56Z</time>
      </trkpt>
      <trkpt lat="42.970214" lon="10.668970">
       <ele>9.83</ele>
       <time>2014-11-04T17:46:04Z</time>
      </trkpt>
      <trkpt lat="42.970390" lon="10.667091">
       <ele>8.68</ele>
       <time>2014-11-04T17:46:27Z</time>
      </trkpt>
      <trkpt lat="42.970371" lon="10.666327">
       <ele>8.16</ele>
       <time>2014-11-04T17:46:36Z</time>
      </trkpt>
      <trkpt lat="42.970314" lon="10.665885">
       <ele>7.78</ele>
       <time>2014-11-04T17:46:41Z</time>
      </trkpt>
      <trkpt lat="42.970203" lon="10.665494">
       <ele>7.6</ele>
       <time>2014-11-04T17:46:47Z</time>
      </trkpt>
      <trkpt lat="42.969905" lon="10.664808">
       <ele>8.23</ele>
       <time>2014-11-04T17:46:56Z</time>
      </trkpt>
      <trkpt lat="42.969757" lon="10.664553">
       <ele>8.54</ele>
       <time>2014-11-04T17:47:00Z</time>
      </trkpt>
      <trkpt lat="42.969562" lon="10.664262">
       <ele>8.89</ele>
       <time>2014-11-04T17:47:05Z</time>
      </trkpt>
      <trkpt lat="42.969314" lon="10.663931">
       <ele>8.72</ele>
       <time>2014-11-04T17:47:11Z</time>
      </trkpt>
      <trkpt lat="42.967674" lon="10.661937">
       <ele>4.6</ele>
       <time>2014-11-04T17:47:47Z</time>
      </trkpt>
      <trkpt lat="42.967464" lon="10.661630">
       <ele>4.08</ele>
       <time>2014-11-04T17:47:52Z</time>
      </trkpt>
      <trkpt lat="42.967315" lon="10.661537">
       <ele>4.14</ele>
       <time>2014-11-04T17:47:55Z</time>
      </trkpt>
      <trkpt lat="42.967262" lon="10.661539">
       <ele>4.04</ele>
       <time>2014-11-04T17:47:56Z</time>
      </trkpt>
      <trkpt lat="42.967178" lon="10.661589">
       <ele>3.79</ele>
       <time>2014-11-04T17:47:57Z</time>
      </trkpt>
      <trkpt lat="42.967159" lon="10.661767">
       <ele>3.71</ele>
       <time>2014-11-04T17:48:00Z</time>
      </trkpt>
      <trkpt lat="42.967208" lon="10.667012">
       <ele>6.54</ele>
       <time>2014-11-04T17:49:03Z</time>
      </trkpt>
      <trkpt lat="42.967197" lon="10.667346">
       <ele>7.04</ele>
       <time>2014-11-04T17:49:07Z</time>
      </trkpt>
      <trkpt lat="42.967151" lon="10.667442">
       <ele>7.08</ele>
       <time>2014-11-04T17:49:09Z</time>
      </trkpt>
      <trkpt lat="42.958660" lon="10.666946">
       <ele>2.28</ele>
       <time>2014-11-04T17:51:30Z</time>
      </trkpt>
      <trkpt lat="42.957977" lon="10.672246">
       <ele>1.6</ele>
       <time>2014-11-04T17:52:35Z</time>
      </trkpt>
      <trkpt lat="42.957519" lon="10.675583">
       <ele>3.69</ele>
       <time>2014-11-04T17:53:16Z</time>
      </trkpt>
      <trkpt lat="42.956874" lon="10.680558">
       <ele>5</ele>
       <time>2014-11-04T17:54:17Z</time>
      </trkpt>
      <trkpt lat="42.956821" lon="10.680851">
       <ele>5</ele>
       <time>2014-11-04T17:54:21Z</time>
      </trkpt>
      <trkpt lat="42.956794" lon="10.680912">
       <ele>5.01</ele>
       <time>2014-11-04T17:54:22Z</time>
      </trkpt>
      <trkpt lat="42.956687" lon="10.680995">
       <ele>5</ele>
       <time>2014-11-04T17:54:24Z</time>
      </trkpt>
      <trkpt lat="42.955329" lon="10.681521">
       <ele>3</ele>
       <time>2014-11-04T17:54:47Z</time>
      </trkpt>
      <trkpt lat="42.955177" lon="10.681529">
       <ele>3</ele>
       <time>2014-11-04T17:54:50Z</time>
      </trkpt>
      <trkpt lat="42.955135" lon="10.681574">
       <ele>3</ele>
       <time>2014-11-04T17:54:51Z</time>
      </trkpt>
      <trkpt lat="42.955116" lon="10.681623">
       <ele>3</ele>
       <time>2014-11-04T17:54:52Z</time>
      </trkpt>
      <trkpt lat="42.955120" lon="10.681782">
       <ele>3.28</ele>
       <time>2014-11-04T17:54:53Z</time>
      </trkpt>
      <trkpt lat="42.955062" lon="10.681927">
       <ele>3.62</ele>
       <time>2014-11-04T17:54:55Z</time>
      </trkpt>
      <trkpt lat="42.955005" lon="10.681988">
       <ele>3.77</ele>
       <time>2014-11-04T17:54:57Z</time>
      </trkpt>
      <trkpt lat="42.952156" lon="10.683131">
       <ele>1.93</ele>
       <time>2014-11-04T17:55:46Z</time>
      </trkpt>
      <trkpt lat="42.951976" lon="10.683194">
       <ele>1.58</ele>
       <time>2014-11-04T17:55:49Z</time>
      </trkpt>
      <trkpt lat="42.951816" lon="10.683196">
       <ele>1.2</ele>
       <time>2014-11-04T17:55:52Z</time>
      </trkpt>
      <trkpt lat="42.951755" lon="10.683357">
       <ele>1.18</ele>
       <time>2014-11-04T17:55:54Z</time>
      </trkpt>
      <trkpt lat="42.951656" lon="10.683519">
       <ele>0.77</ele>
       <time>2014-11-04T17:55:56Z</time>
      </trkpt>
      <trkpt lat="42.950977" lon="10.685044">
       <ele>-0.15</ele>
       <time>2014-11-04T17:56:18Z</time>
      </trkpt>
      <trkpt lat="42.950416" lon="10.686208">
       <ele>0</ele>
       <time>2014-11-04T17:56:35Z</time>
      </trkpt>
      <trkpt lat="42.949970" lon="10.687258">
       <ele>1</ele>
       <time>2014-11-04T17:56:50Z</time>
      </trkpt>
      <trkpt lat="42.949050" lon="10.689240">
       <ele>1</ele>
       <time>2014-11-04T17:57:18Z</time>
      </trkpt>
      <trkpt lat="42.948500" lon="10.690480">
       <ele>-1</ele>
       <time>2014-11-04T17:57:36Z</time>
      </trkpt>
      <trkpt lat="42.947650" lon="10.692300">
       <ele>0</ele>
       <time>2014-11-04T17:58:02Z</time>
      </trkpt>
      <trkpt lat="42.946990" lon="10.693800">
       <ele>1</ele>
       <time>2014-11-04T17:58:23Z</time>
      </trkpt>
      <trkpt lat="42.946880" lon="10.694000">
       <ele>1</ele>
       <time>2014-11-04T17:58:26Z</time>
      </trkpt>
      <trkpt lat="42.946850" lon="10.694330">
       <ele>1</ele>
       <time>2014-11-04T17:58:30Z</time>
      </trkpt>
      <trkpt lat="42.946860" lon="10.694660">
       <ele>1</ele>
       <time>2014-11-04T17:58:34Z</time>
      </trkpt>
      <trkpt lat="42.946700" lon="10.694560">
       <ele>1</ele>
       <time>2014-11-04T17:58:37Z</time>
      </trkpt>
      <trkpt lat="42.946620" lon="10.695080">
       <ele>0</ele>
       <time>2014-11-04T17:58:44Z</time>
      </trkpt>
      <trkpt lat="42.946590" lon="10.695600">
       <ele>0</ele>
       <time>2014-11-04T17:58:50Z</time>
      </trkpt>
      <trkpt lat="42.946490" lon="10.696240">
       <ele>1</ele>
       <time>2014-11-04T17:58:58Z</time>
      </trkpt>
      <trkpt lat="42.946090" lon="10.697440">
       <ele>2</ele>
       <time>2014-11-04T17:59:14Z</time>
      </trkpt>
      <trkpt lat="42.945860" lon="10.698020">
       <ele>2</ele>
       <time>2014-11-04T17:59:22Z</time>
      </trkpt>
      <trkpt lat="42.945450" lon="10.699270">
       <ele>4</ele>
       <time>2014-11-04T17:59:39Z</time>
      </trkpt>
      <trkpt lat="42.945190" lon="10.699870">
       <ele>5</ele>
       <time>2014-11-04T17:59:47Z</time>
      </trkpt>
      <trkpt lat="42.944740" lon="10.701160">
       <ele>4</ele>
       <time>2014-11-04T18:00:05Z</time>
      </trkpt>
      <trkpt lat="42.944460" lon="10.701820">
       <ele>4</ele>
       <time>2014-11-04T18:00:14Z</time>
      </trkpt>
      <trkpt lat="42.943520" lon="10.703770">
       <ele>5</ele>
       <time>2014-11-04T18:00:42Z</time>
      </trkpt>
      <trkpt lat="42.943240" lon="10.704400">
       <ele>5</ele>
       <time>2014-11-04T18:00:51Z</time>
      </trkpt>
      <trkpt lat="42.942940" lon="10.705020">
       <ele>4</ele>
       <time>2014-11-04T18:01:00Z</time>
      </trkpt>
      <trkpt lat="42.942790" lon="10.705660">
       <ele>5</ele>
       <time>2014-11-04T18:01:08Z</time>
      </trkpt>
      <trkpt lat="42.942690" lon="10.706260">
       <ele>4</ele>
       <time>2014-11-04T18:01:16Z</time>
      </trkpt>
      <trkpt lat="42.942630" lon="10.706820">
       <ele>4</ele>
       <time>2014-11-04T18:01:23Z</time>
      </trkpt>
      <trkpt lat="42.942550" lon="10.707290">
       <ele>3</ele>
       <time>2014-11-04T18:01:28Z</time>
      </trkpt>
      <trkpt lat="42.942080" lon="10.710530">
       <ele>5</ele>
       <time>2014-11-04T18:02:09Z</time>
      </trkpt>
      <trkpt lat="42.941920" lon="10.711240">
       <ele>5</ele>
       <time>2014-11-04T18:02:18Z</time>
      </trkpt>
      <trkpt lat="42.941730" lon="10.711860">
       <ele>5</ele>
       <time>2014-11-04T18:02:26Z</time>
      </trkpt>
      <trkpt lat="42.941520" lon="10.712440">
       <ele>5</ele>
       <time>2014-11-04T18:02:34Z</time>
      </trkpt>
      <trkpt lat="42.941260" lon="10.712980">
       <ele>5</ele>
       <time>2014-11-04T18:02:41Z</time>
      </trkpt>
      <trkpt lat="42.940410" lon="10.714270">
       <ele>3</ele>
       <time>2014-11-04T18:03:03Z</time>
      </trkpt>
      <trkpt lat="42.940040" lon="10.714760">
       <ele>3</ele>
       <time>2014-11-04T18:03:11Z</time>
      </trkpt>
      <trkpt lat="42.939330" lon="10.715790">
       <ele>5</ele>
       <time>2014-11-04T18:03:28Z</time>
      </trkpt>
      <trkpt lat="42.939090" lon="10.716220">
       <ele>5</ele>
       <time>2014-11-04T18:03:35Z</time>
      </trkpt>
      <trkpt lat="42.937590" lon="10.719810">
       <ele>8</ele>
       <time>2014-11-04T18:04:25Z</time>
      </trkpt>
      <trkpt lat="42.935550" lon="10.723940">
       <ele>5</ele>
       <time>2014-11-04T18:05:26Z</time>
      </trkpt>
      <trkpt lat="42.935100" lon="10.724550">
       <ele>6</ele>
       <time>2014-11-04T18:05:36Z</time>
      </trkpt>
      <trkpt lat="42.934100" lon="10.725680">
       <ele>3</ele>
       <time>2014-11-04T18:05:58Z</time>
      </trkpt>
      <trkpt lat="42.933630" lon="10.726410">
       <ele>4</ele>
       <time>2014-11-04T18:06:09Z</time>
      </trkpt>
      <trkpt lat="42.933330" lon="10.727050">
       <ele>4</ele>
       <time>2014-11-04T18:06:19Z</time>
      </trkpt>
      <trkpt lat="42.932330" lon="10.729890">
       <ele>3</ele>
       <time>2014-11-04T18:06:57Z</time>
      </trkpt>
      <trkpt lat="42.931170" lon="10.733620">
       <ele>4</ele>
       <time>2014-11-04T18:07:46Z</time>
      </trkpt>
      <trkpt lat="42.930670" lon="10.735030">
       <ele>5</ele>
       <time>2014-11-04T18:08:05Z</time>
      </trkpt>
      <trkpt lat="42.929630" lon="10.738210">
       <ele>3</ele>
       <time>2014-11-04T18:08:47Z</time>
      </trkpt>
      <trkpt lat="42.929130" lon="10.739600">
       <ele>4</ele>
       <time>2014-11-04T18:09:06Z</time>
      </trkpt>
      <trkpt lat="42.928470" lon="10.741240">
       <ele>3</ele>
       <time>2014-11-04T18:09:29Z</time>
      </trkpt>
      <trkpt lat="42.927070" lon="10.744860">
       <ele>4</ele>
       <time>2014-11-04T18:10:19Z</time>
      </trkpt>
      <trkpt lat="42.926760" lon="10.745480">
       <ele>5</ele>
       <time>2014-11-04T18:10:28Z</time>
      </trkpt>
      <trkpt lat="42.926650" lon="10.745660">
       <ele>6</ele>
       <time>2014-11-04T18:10:31Z</time>
      </trkpt>
      <trkpt lat="42.926620" lon="10.745740">
       <ele>6</ele>
       <time>2014-11-04T18:10:32Z</time>
      </trkpt>
      <trkpt lat="42.926620" lon="10.745860">
       <ele>7</ele>
       <time>2014-11-04T18:10:33Z</time>
      </trkpt>
      <trkpt lat="42.926570" lon="10.745870">
       <ele>7</ele>
       <time>2014-11-04T18:10:34Z</time>
      </trkpt>
      <trkpt lat="42.926490" lon="10.745980">
       <ele>7</ele>
       <time>2014-11-04T18:10:36Z</time>
      </trkpt>
      <trkpt lat="42.924090" lon="10.750440">
       <ele>6</ele>
       <time>2014-11-04T18:11:43Z</time>
      </trkpt>
      <trkpt lat="42.924300" lon="10.750650">
       <ele>8</ele>
       <time>2014-11-04T18:11:47Z</time>
      </trkpt>
      <trkpt lat="42.924330" lon="10.750720">
       <ele>8</ele>
       <time>2014-11-04T18:11:48Z</time>
      </trkpt>
      <trkpt lat="42.924320" lon="10.750790">
       <ele>8</ele>
       <time>2014-11-04T18:11:49Z</time>
      </trkpt>
      <trkpt lat="42.923400" lon="10.753070">
       <ele>10</ele>
       <time>2014-11-04T18:12:21Z</time>
      </trkpt>
      <trkpt lat="42.923060" lon="10.754080">
       <ele>8</ele>
       <time>2014-11-04T18:12:34Z</time>
      </trkpt>
      <trkpt lat="42.922560" lon="10.754910">
       <ele>12</ele>
       <time>2014-11-04T18:12:48Z</time>
      </trkpt>
      <trkpt lat="42.922100" lon="10.755140">
       <ele>8</ele>
       <time>2014-11-04T18:12:56Z</time>
      </trkpt>
      <trkpt lat="42.921970" lon="10.755270">
       <ele>7</ele>
       <time>2014-11-04T18:12:58Z</time>
      </trkpt>
      <trkpt lat="42.921790" lon="10.755520">
       <ele>5</ele>
       <time>2014-11-04T18:13:03Z</time>
      </trkpt>
      <trkpt lat="42.921280" lon="10.756320">
       <ele>6</ele>
       <time>2014-11-04T18:13:15Z</time>
      </trkpt>
      <trkpt lat="42.921230" lon="10.756440">
       <ele>6</ele>
       <time>2014-11-04T18:13:17Z</time>
      </trkpt>
      <trkpt lat="42.921230" lon="10.756650">
       <ele>7</ele>
       <time>2014-11-04T18:13:20Z</time>
      </trkpt>
      <trkpt lat="42.921160" lon="10.756750">
       <ele>7</ele>
       <time>2014-11-04T18:13:21Z</time>
      </trkpt>
      <trkpt lat="42.921000" lon="10.756900">
       <ele>7</ele>
       <time>2014-11-04T18:13:25Z</time>
      </trkpt>
      <trkpt lat="42.920940" lon="10.756910">
       <ele>7</ele>
       <time>2014-11-04T18:13:26Z</time>
      </trkpt>
      <trkpt lat="42.920890" lon="10.756900">
       <ele>7</ele>
       <time>2014-11-04T18:13:26Z</time>
      </trkpt>
      <trkpt lat="42.920730" lon="10.756800">
       <ele>6</ele>
       <time>2014-11-04T18:13:29Z</time>
      </trkpt>
      <trkpt lat="42.920650" lon="10.756730">
       <ele>5</ele>
       <time>2014-11-04T18:13:31Z</time>
      </trkpt>
      <trkpt lat="42.920570" lon="10.756730">
       <ele>5</ele>
       <time>2014-11-04T18:13:32Z</time>
      </trkpt>
      <trkpt lat="42.920500" lon="10.756750">
       <ele>4</ele>
       <time>2014-11-04T18:13:33Z</time>
      </trkpt>
      <trkpt lat="42.919940" lon="10.757620">
       <ele>7</ele>
       <time>2014-11-04T18:13:48Z</time>
      </trkpt>
      <trkpt lat="42.919600" lon="10.758290">
       <ele>7</ele>
       <time>2014-11-04T18:13:57Z</time>
      </trkpt>
      <trkpt lat="42.919040" lon="10.759320">
       <ele>4</ele>
       <time>2014-11-04T18:14:13Z</time>
      </trkpt>
      <trkpt lat="42.919060" lon="10.759540">
       <ele>4</ele>
       <time>2014-11-04T18:14:16Z</time>
      </trkpt>
      <trkpt lat="42.919100" lon="10.759660">
       <ele>4</ele>
       <time>2014-11-04T18:14:17Z</time>
      </trkpt>
      <trkpt lat="42.919100" lon="10.759840">
       <ele>5</ele>
       <time>2014-11-04T18:14:19Z</time>
      </trkpt>
      <trkpt lat="42.918910" lon="10.760020">
       <ele>4</ele>
       <time>2014-11-04T18:14:23Z</time>
      </trkpt>
      <trkpt lat="42.918910" lon="10.760170">
       <ele>4</ele>
       <time>2014-11-04T18:14:25Z</time>
      </trkpt>
      <trkpt lat="42.919070" lon="10.760610">
       <ele>5</ele>
       <time>2014-11-04T18:14:31Z</time>
      </trkpt>
      <trkpt lat="42.919150" lon="10.760880">
       <ele>6</ele>
       <time>2014-11-04T18:14:35Z</time>
      </trkpt>
      <trkpt lat="42.919150" lon="10.761150">
       <ele>6</ele>
       <time>2014-11-04T18:14:38Z</time>
      </trkpt>
      <trkpt lat="42.919010" lon="10.761220">
       <ele>5</ele>
       <time>2014-11-04T18:14:40Z</time>
      </trkpt>
      <trkpt lat="42.918880" lon="10.761330">
       <ele>5</ele>
       <time>2014-11-04T18:14:43Z</time>
      </trkpt>
      <trkpt lat="42.918670" lon="10.761630">
       <ele>5</ele>
       <time>2014-11-04T18:14:48Z</time>
      </trkpt>
      <trkpt lat="42.918440" lon="10.762030">
       <ele>5</ele>
       <time>2014-11-04T18:14:54Z</time>
      </trkpt>
      <trkpt lat="42.917990" lon="10.763000">
       <ele>6</ele>
       <time>2014-11-04T18:15:08Z</time>
      </trkpt>
      <trkpt lat="42.915550" lon="10.767910">
       <ele>10</ele>
       <time>2014-11-04T18:16:20Z</time>
      </trkpt>
      <trkpt lat="42.915020" lon="10.768770">
       <ele>8</ele>
       <time>2014-11-04T18:16:34Z</time>
      </trkpt>
      <trkpt lat="42.914610" lon="10.769280">
       <ele>8</ele>
       <time>2014-11-04T18:16:43Z</time>
      </trkpt>
      <trkpt lat="42.911030" lon="10.773330">
       <ele>7</ele>
       <time>2014-11-04T18:18:00Z</time>
      </trkpt>
      <trkpt lat="42.911040" lon="10.773360">
       <ele>7</ele>
       <time>2014-11-04T18:18:01Z</time>
      </trkpt>
      <trkpt lat="42.909690" lon="10.774910">
       <ele>11</ele>
       <time>2014-11-04T18:18:30Z</time>
      </trkpt>
      <trkpt lat="42.906390" lon="10.778600">
       <ele>8</ele>
       <time>2014-11-04T18:19:41Z</time>
      </trkpt>
      <trkpt lat="42.905880" lon="10.779220">
       <ele>4</ele>
       <time>2014-11-04T18:19:52Z</time>
      </trkpt>
      <trkpt lat="42.905620" lon="10.779420">
       <ele>4</ele>
       <time>2014-11-04T18:19:57Z</time>
      </trkpt>
      <trkpt lat="42.905390" lon="10.779680">
       <ele>4</ele>
       <time>2014-11-04T18:20:02Z</time>
      </trkpt>
      <trkpt lat="42.905020" lon="10.780060">
       <ele>5</ele>
       <time>2014-11-04T18:20:09Z</time>
      </trkpt>
      <trkpt lat="42.904280" lon="10.780750">
       <ele>6</ele>
       <time>2014-11-04T18:20:24Z</time>
      </trkpt>
      <trkpt lat="42.904010" lon="10.780960">
       <ele>6</ele>
       <time>2014-11-04T18:20:29Z</time>
      </trkpt>
      <trkpt lat="42.903590" lon="10.781230">
       <ele>6</ele>
       <time>2014-11-04T18:20:37Z</time>
      </trkpt>
      <trkpt lat="42.903250" lon="10.781590">
       <ele>4</ele>
       <time>2014-11-04T18:20:44Z</time>
      </trkpt>
      <trkpt lat="42.902180" lon="10.782280">
       <ele>6</ele>
       <time>2014-11-04T18:21:04Z</time>
      </trkpt>
      <trkpt lat="42.901660" lon="10.782510">
       <ele>7</ele>
       <time>2014-11-04T18:21:13Z</time>
      </trkpt>
      <trkpt lat="42.901000" lon="10.782920">
       <ele>6</ele>
       <time>2014-11-04T18:21:25Z</time>
      </trkpt>
      <trkpt lat="42.899380" lon="10.784040">
       <ele>5</ele>
       <time>2014-11-04T18:21:55Z</time>
      </trkpt>
      <trkpt lat="42.898990" lon="10.784290">
       <ele>6</ele>
       <time>2014-11-04T18:22:02Z</time>
      </trkpt>
      <trkpt lat="42.898570" lon="10.784600">
       <ele>5</ele>
       <time>2014-11-04T18:22:10Z</time>
      </trkpt>
      <trkpt lat="42.898540" lon="10.784690">
       <ele>5</ele>
       <time>2014-11-04T18:22:11Z</time>
      </trkpt>
      <trkpt lat="42.898590" lon="10.784880">
       <ele>4</ele>
       <time>2014-11-04T18:22:14Z</time>
      </trkpt>
      <trkpt lat="42.898540" lon="10.784990">
       <ele>4</ele>
       <time>2014-11-04T18:22:15Z</time>
      </trkpt>
      <trkpt lat="42.898170" lon="10.785240">
       <ele>3</ele>
       <time>2014-11-04T18:22:22Z</time>
      </trkpt>
      <trkpt lat="42.898100" lon="10.785350">
       <ele>3</ele>
       <time>2014-11-04T18:22:24Z</time>
      </trkpt>
      <trkpt lat="42.897460" lon="10.785780">
       <ele>1</ele>
       <time>2014-11-04T18:22:36Z</time>
      </trkpt>
      <trkpt lat="42.897360" lon="10.785820">
       <ele>2</ele>
       <time>2014-11-04T18:22:38Z</time>
      </trkpt>
      <trkpt lat="42.897240" lon="10.785750">
       <ele>3</ele>
       <time>2014-11-04T18:22:40Z</time>
      </trkpt>
      <trkpt lat="42.897140" lon="10.785630">
       <ele>4</ele>
       <time>2014-11-04T18:22:42Z</time>
      </trkpt>
      <trkpt lat="42.897090" lon="10.785600">
       <ele>4</ele>
       <time>2014-11-04T18:22:43Z</time>
      </trkpt>
      <trkpt lat="42.897040" lon="10.785610">
       <ele>4</ele>
       <time>2014-11-04T18:22:44Z</time>
      </trkpt>
      <trkpt lat="42.896800" lon="10.785750">
       <ele>5</ele>
       <time>2014-11-04T18:22:48Z</time>
      </trkpt>
      <trkpt lat="42.896270" lon="10.786130">
       <ele>4</ele>
       <time>2014-11-04T18:22:58Z</time>
      </trkpt>
      <trkpt lat="42.895980" lon="10.786280">
       <ele>3</ele>
       <time>2014-11-04T18:23:03Z</time>
      </trkpt>
      <trkpt lat="42.895740" lon="10.786370">
       <ele>2</ele>
       <time>2014-11-04T18:23:07Z</time>
      </trkpt>
      <trkpt lat="42.895400" lon="10.786440">
       <ele>1</ele>
       <time>2014-11-04T18:23:13Z</time>
      </trkpt>
      <trkpt lat="42.895370" lon="10.786430">
       <ele>1</ele>
       <time>2014-11-04T18:23:14Z</time>
      </trkpt>
      <trkpt lat="42.895340" lon="10.786380">
       <ele>1</ele>
       <time>2014-11-04T18:23:14Z</time>
      </trkpt>
      <trkpt lat="42.895350" lon="10.786320">
       <ele>2</ele>
       <time>2014-11-04T18:23:15Z</time>
      </trkpt>
      <trkpt lat="42.893070" lon="10.786800">
       <ele>2</ele>
       <time>2014-11-04T18:23:53Z</time>
      </trkpt>
      <trkpt lat="42.892520" lon="10.787100">
       <ele>2</ele>
       <time>2014-11-04T18:24:03Z</time>
      </trkpt>
      <trkpt lat="42.892010" lon="10.787490">
       <ele>3</ele>
       <time>2014-11-04T18:24:13Z</time>
      </trkpt>
      <trkpt lat="42.891760" lon="10.787770">
       <ele>3</ele>
       <time>2014-11-04T18:24:18Z</time>
      </trkpt>
      <trkpt lat="42.891440" lon="10.788210">
       <ele>3</ele>
       <time>2014-11-04T18:24:26Z</time>
      </trkpt>
      <trkpt lat="42.890440" lon="10.790180">
       <ele>2</ele>
       <time>2014-11-04T18:24:55Z</time>
      </trkpt>
      <trkpt lat="42.890280" lon="10.790430">
       <ele>2</ele>
       <time>2014-11-04T18:24:59Z</time>
      </trkpt>
      <trkpt lat="42.889720" lon="10.791130">
       <ele>5</ele>
       <time>2014-11-04T18:25:11Z</time>
      </trkpt>
      <trkpt lat="42.888680" lon="10.792490">
       <ele>13</ele>
       <time>2014-11-04T18:25:35Z</time>
      </trkpt>
      <trkpt lat="42.888430" lon="10.792660">
       <ele>15</ele>
       <time>2014-11-04T18:25:40Z</time>
      </trkpt>
      <trkpt lat="42.888180" lon="10.792770">
       <ele>18</ele>
       <time>2014-11-04T18:25:44Z</time>
      </trkpt>
      <trkpt lat="42.887980" lon="10.792810">
       <ele>20</ele>
       <time>2014-11-04T18:25:48Z</time>
      </trkpt>
      <trkpt lat="42.887400" lon="10.792690">
       <ele>25</ele>
       <time>2014-11-04T18:25:57Z</time>
      </trkpt>
      <trkpt lat="42.885300" lon="10.791190">
       <ele>51</ele>
       <time>2014-11-04T18:26:37Z</time>
      </trkpt>
      <trkpt lat="42.884620" lon="10.790780">
       <ele>56</ele>
       <time>2014-11-04T18:26:49Z</time>
      </trkpt>
      <trkpt lat="42.884070" lon="10.790620">
       <ele>57</ele>
       <time>2014-11-04T18:26:58Z</time>
      </trkpt>
      <trkpt lat="42.883560" lon="10.790580">
       <ele>56</ele>
       <time>2014-11-04T18:27:07Z</time>
      </trkpt>
      <trkpt lat="42.882800" lon="10.790700">
       <ele>59</ele>
       <time>2014-11-04T18:27:20Z</time>
      </trkpt>
      <trkpt lat="42.882090" lon="10.790950">
       <ele>65</ele>
       <time>2014-11-04T18:27:32Z</time>
      </trkpt>
      <trkpt lat="42.881550" lon="10.791420">
       <ele>70</ele>
       <time>2014-11-04T18:27:42Z</time>
      </trkpt>
      <trkpt lat="42.881190" lon="10.791950">
       <ele>71</ele>
       <time>2014-11-04T18:27:51Z</time>
      </trkpt>
      <trkpt lat="42.880240" lon="10.793460">
       <ele>65</ele>
       <time>2014-11-04T18:28:15Z</time>
      </trkpt>
      <trkpt lat="42.879820" lon="10.794020">
       <ele>63</ele>
       <time>2014-11-04T18:28:25Z</time>
      </trkpt>
      <trkpt lat="42.879650" lon="10.794110">
       <ele>64</ele>
       <time>2014-11-04T18:28:28Z</time>
      </trkpt>
      <trkpt lat="42.879180" lon="10.794590">
       <ele>64</ele>
       <time>2014-11-04T18:28:38Z</time>
      </trkpt>
      <trkpt lat="42.874800" lon="10.798040">
       <ele>58</ele>
       <time>2014-11-04T18:30:02Z</time>
      </trkpt>
      <trkpt lat="42.874350" lon="10.798320">
       <ele>56</ele>
       <time>2014-11-04T18:30:10Z</time>
      </trkpt>
      <trkpt lat="42.874160" lon="10.798370">
       <ele>55</ele>
       <time>2014-11-04T18:30:13Z</time>
      </trkpt>
      <trkpt lat="42.873950" lon="10.798390">
       <ele>55</ele>
       <time>2014-11-04T18:30:17Z</time>
      </trkpt>
      <trkpt lat="42.873580" lon="10.798370">
       <ele>55</ele>
       <time>2014-11-04T18:30:23Z</time>
      </trkpt>
      <trkpt lat="42.868430" lon="10.797470">
       <ele>35</ele>
       <time>2014-11-04T18:31:49Z</time>
      </trkpt>
      <trkpt lat="42.868170" lon="10.797450">
       <ele>35</ele>
       <time>2014-11-04T18:31:53Z</time>
      </trkpt>
      <trkpt lat="42.867850" lon="10.797470">
       <ele>34</ele>
       <time>2014-11-04T18:31:59Z</time>
      </trkpt>
      <trkpt lat="42.867560" lon="10.797540">
       <ele>33</ele>
       <time>2014-11-04T18:32:03Z</time>
      </trkpt>
      <trkpt lat="42.867240" lon="10.797670">
       <ele>33</ele>
       <time>2014-11-04T18:32:09Z</time>
      </trkpt>
      <trkpt lat="42.866970" lon="10.797820">
       <ele>34</ele>
       <time>2014-11-04T18:32:14Z</time>
      </trkpt>
      <trkpt lat="42.864020" lon="10.800030">
       <ele>30</ele>
       <time>2014-11-04T18:33:10Z</time>
      </trkpt>
      <trkpt lat="42.855330" lon="10.806640">
       <ele>20</ele>
       <time>2014-11-04T18:35:55Z</time>
      </trkpt>
      <trkpt lat="42.850570" lon="10.810300">
       <ele>13</ele>
       <time>2014-11-04T18:37:25Z</time>
      </trkpt>
      <trkpt lat="42.848490" lon="10.811960">
       <ele>8</ele>
       <time>2014-11-04T18:38:05Z</time>
      </trkpt>
      <trkpt lat="42.847030" lon="10.813070">
       <ele>9</ele>
       <time>2014-11-04T18:38:33Z</time>
      </trkpt>
      <trkpt lat="42.845840" lon="10.814010">
       <ele>8</ele>
       <time>2014-11-04T18:38:56Z</time>
      </trkpt>
      <trkpt lat="42.844790" lon="10.814770">
       <ele>9</ele>
       <time>2014-11-04T18:39:16Z</time>
      </trkpt>
      <trkpt lat="42.844250" lon="10.815200">
       <ele>9</ele>
       <time>2014-11-04T18:39:26Z</time>
      </trkpt>
      <trkpt lat="42.843860" lon="10.815440">
       <ele>10</ele>
       <time>2014-11-04T18:39:33Z</time>
      </trkpt>
      <trkpt lat="42.843040" lon="10.815810">
       <ele>12</ele>
       <time>2014-11-04T18:39:47Z</time>
      </trkpt>
      <trkpt lat="42.840820" lon="10.816640">
       <ele>18</ele>
       <time>2014-11-04T18:40:26Z</time>
      </trkpt>
      <trkpt lat="42.839770" lon="10.816960">
       <ele>17</ele>
       <time>2014-11-04T18:40:43Z</time>
      </trkpt>
      <trkpt lat="42.839450" lon="10.817040">
       <ele>17</ele>
       <time>2014-11-04T18:40:49Z</time>
      </trkpt>
      <trkpt lat="42.838820" lon="10.817150">
       <ele>21</ele>
       <time>2014-11-04T18:40:59Z</time>
      </trkpt>
      <trkpt lat="42.836440" lon="10.817630">
       <ele>29</ele>
       <time>2014-11-04T18:41:39Z</time>
      </trkpt>
      <trkpt lat="42.835910" lon="10.817780">
       <ele>30</ele>
       <time>2014-11-04T18:41:48Z</time>
      </trkpt>
      <trkpt lat="42.835220" lon="10.818070">
       <ele>32</ele>
       <time>2014-11-04T18:42:00Z</time>
      </trkpt>
      <trkpt lat="42.834750" lon="10.818370">
       <ele>33</ele>
       <time>2014-11-04T18:42:09Z</time>
      </trkpt>
      <trkpt lat="42.830750" lon="10.821280">
       <ele>48</ele>
       <time>2014-11-04T18:43:24Z</time>
      </trkpt>
      <trkpt lat="42.829440" lon="10.822200">
       <ele>54</ele>
       <time>2014-11-04T18:43:48Z</time>
      </trkpt>
      <trkpt lat="42.828890" lon="10.822530">
       <ele>57</ele>
       <time>2014-11-04T18:43:58Z</time>
      </trkpt>
      <trkpt lat="42.826590" lon="10.823830">
       <ele>69</ele>
       <time>2014-11-04T18:44:40Z</time>
      </trkpt>
      <trkpt lat="42.824870" lon="10.824770">
       <ele>80</ele>
       <time>2014-11-04T18:45:10Z</time>
      </trkpt>
      <trkpt lat="42.824570" lon="10.824920">
       <ele>81</ele>
       <time>2014-11-04T18:45:16Z</time>
      </trkpt>
      <trkpt lat="42.824180" lon="10.825090">
       <ele>83</ele>
       <time>2014-11-04T18:45:23Z</time>
      </trkpt>
      <trkpt lat="42.823870" lon="10.825140">
       <ele>84</ele>
       <time>2014-11-04T18:45:28Z</time>
      </trkpt>
      <trkpt lat="42.823550" lon="10.825140">
       <ele>86</ele>
       <time>2014-11-04T18:45:33Z</time>
      </trkpt>
      <trkpt lat="42.823260" lon="10.825080">
       <ele>87</ele>
       <time>2014-11-04T18:45:38Z</time>
      </trkpt>
      <trkpt lat="42.822960" lon="10.824980">
       <ele>88</ele>
       <time>2014-11-04T18:45:43Z</time>
      </trkpt>
      <trkpt lat="42.822630" lon="10.824810">
       <ele>92</ele>
       <time>2014-11-04T18:45:49Z</time>
      </trkpt>
      <trkpt lat="42.822360" lon="10.824590">
       <ele>96</ele>
       <time>2014-11-04T18:45:54Z</time>
      </trkpt>
      <trkpt lat="42.821140" lon="10.823370">
       <ele>104</ele>
       <time>2014-11-04T18:46:19Z</time>
      </trkpt>
      <trkpt lat="42.820820" lon="10.823140">
       <ele>104</ele>
       <time>2014-11-04T18:46:25Z</time>
      </trkpt>
      <trkpt lat="42.820580" lon="10.823010">
       <ele>110</ele>
       <time>2014-11-04T18:46:29Z</time>
      </trkpt>
      <trkpt lat="42.820300" lon="10.822880">
       <ele>115</ele>
       <time>2014-11-04T18:46:34Z</time>
      </trkpt>
      <trkpt lat="42.820060" lon="10.822790">
       <ele>119</ele>
       <time>2014-11-04T18:46:38Z</time>
      </trkpt>
      <trkpt lat="42.819850" lon="10.822750">
       <ele>122</ele>
       <time>2014-11-04T18:46:42Z</time>
      </trkpt>
      <trkpt lat="42.818050" lon="10.822630">
       <ele>115</ele>
       <time>2014-11-04T18:47:12Z</time>
      </trkpt>
      <trkpt lat="42.817610" lon="10.822650">
       <ele>107</ele>
       <time>2014-11-04T18:47:19Z</time>
      </trkpt>
      <trkpt lat="42.817390" lon="10.822680">
       <ele>104</ele>
       <time>2014-11-04T18:47:23Z</time>
      </trkpt>
      <trkpt lat="42.817160" lon="10.822730">
       <ele>102</ele>
       <time>2014-11-04T18:47:27Z</time>
      </trkpt>
      <trkpt lat="42.816840" lon="10.822850">
       <ele>99</ele>
       <time>2014-11-04T18:47:32Z</time>
      </trkpt>
      <trkpt lat="42.816650" lon="10.822940">
       <ele>96</ele>
       <time>2014-11-04T18:47:36Z</time>
      </trkpt>
      <trkpt lat="42.812660" lon="10.825100">
       <ele>69</ele>
       <time>2014-11-04T18:48:47Z</time>
      </trkpt>
      <trkpt lat="42.812370" lon="10.825230">
       <ele>68</ele>
       <time>2014-11-04T18:48:52Z</time>
      </trkpt>
      <trkpt lat="42.812090" lon="10.825310">
       <ele>68</ele>
       <time>2014-11-04T18:48:57Z</time>
      </trkpt>
      <trkpt lat="42.811720" lon="10.825390">
       <ele>68</ele>
       <time>2014-11-04T18:49:03Z</time>
      </trkpt>
      <trkpt lat="42.811400" lon="10.825430">
       <ele>67</ele>
       <time>2014-11-04T18:49:08Z</time>
      </trkpt>
      <trkpt lat="42.811030" lon="10.825420">
       <ele>67</ele>
       <time>2014-11-04T18:49:14Z</time>
      </trkpt>
      <trkpt lat="42.810490" lon="10.825370">
       <ele>66</ele>
       <time>2014-11-04T18:49:23Z</time>
      </trkpt>
      <trkpt lat="42.809790" lon="10.825360">
       <ele>62</ele>
       <time>2014-11-04T18:49:35Z</time>
      </trkpt>
      <trkpt lat="42.809120" lon="10.825410">
       <ele>54</ele>
       <time>2014-11-04T18:49:46Z</time>
      </trkpt>
      <trkpt lat="42.806930" lon="10.825820">
       <ele>45</ele>
       <time>2014-11-04T18:50:23Z</time>
      </trkpt>
      <trkpt lat="42.800540" lon="10.827140">
       <ele>26</ele>
       <time>2014-11-04T18:52:10Z</time>
      </trkpt>
      <trkpt lat="42.789810" lon="10.829310">
       <ele>7</ele>
       <time>2014-11-04T18:55:10Z</time>
      </trkpt>
      <trkpt lat="42.786880" lon="10.829860">
       <ele>5</ele>
       <time>2014-11-04T18:55:59Z</time>
      </trkpt>
      <trkpt lat="42.784080" lon="10.830450">
       <ele>4</ele>
       <time>2014-11-04T18:56:46Z</time>
      </trkpt>
      <trkpt lat="42.783610" lon="10.830570">
       <ele>4</ele>
       <time>2014-11-04T18:56:54Z</time>
      </trkpt>
      <trkpt lat="42.783110" lon="10.830770">
       <ele>5</ele>
       <time>2014-11-04T18:57:02Z</time>
      </trkpt>
      <trkpt lat="42.782790" lon="10.830960">
       <ele>6</ele>
       <time>2014-11-04T18:57:08Z</time>
      </trkpt>
      <trkpt lat="42.782360" lon="10.831260">
       <ele>9</ele>
       <time>2014-11-04T18:57:16Z</time>
      </trkpt>
      <trkpt lat="42.781710" lon="10.831980">
       <ele>9</ele>
       <time>2014-11-04T18:57:30Z</time>
      </trkpt>
      <trkpt lat="42.780800" lon="10.833260">
       <ele>7</ele>
       <time>2014-11-04T18:57:52Z</time>
      </trkpt>
      <trkpt lat="42.780520" lon="10.833580">
       <ele>8</ele>
       <time>2014-11-04T18:57:58Z</time>
      </trkpt>
      <trkpt lat="42.779990" lon="10.834100">
       <ele>6</ele>
       <time>2014-11-04T18:58:09Z</time>
      </trkpt>
      <trkpt lat="42.777960" lon="10.835870">
       <ele>10</ele>
       <time>2014-11-04T18:58:49Z</time>
      </trkpt>
      <trkpt lat="42.777930" lon="10.835840">
       <ele>10</ele>
       <time>2014-11-04T18:58:49Z</time>
      </trkpt>
      <trkpt lat="42.777270" lon="10.836470">
       <ele>9</ele>
       <time>2014-11-04T18:59:03Z</time>
      </trkpt>
      <trkpt lat="42.777050" lon="10.836770">
       <ele>9</ele>
       <time>2014-11-04T18:59:08Z</time>
      </trkpt>
      <trkpt lat="42.776600" lon="10.837530">
       <ele>12</ele>
       <time>2014-11-04T18:59:20Z</time>
      </trkpt>
      <trkpt lat="42.776370" lon="10.837970">
       <ele>13</ele>
       <time>2014-11-04T18:59:26Z</time>
      </trkpt>
      <trkpt lat="42.774620" lon="10.842270">
       <ele>4</ele>
       <time>2014-11-04T19:00:26Z</time>
      </trkpt>
      <trkpt lat="42.774150" lon="10.843500">
       <ele>4</ele>
       <time>2014-11-04T19:00:43Z</time>
      </trkpt>
      <trkpt lat="42.773840" lon="10.844180">
       <ele>6</ele>
       <time>2014-11-04T19:00:53Z</time>
      </trkpt>
      <trkpt lat="42.772400" lon="10.847890">
       <ele>9</ele>
       <time>2014-11-04T19:01:44Z</time>
      </trkpt>
      <trkpt lat="42.772120" lon="10.848530">
       <ele>9</ele>
       <time>2014-11-04T19:01:53Z</time>
      </trkpt>
      <trkpt lat="42.770900" lon="10.851610">
       <ele>9</ele>
       <time>2014-11-04T19:02:36Z</time>
      </trkpt>
      <trkpt lat="42.770690" lon="10.851970">
       <ele>8</ele>
       <time>2014-11-04T19:02:41Z</time>
      </trkpt>
      <trkpt lat="42.770610" lon="10.852060">
       <ele>8</ele>
       <time>2014-11-04T19:02:43Z</time>
      </trkpt>
      <trkpt lat="42.770510" lon="10.852140">
       <ele>7</ele>
       <time>2014-11-04T19:02:45Z</time>
      </trkpt>
      <trkpt lat="42.770300" lon="10.852270">
       <ele>7</ele>
       <time>2014-11-04T19:02:49Z</time>
      </trkpt>
      <trkpt lat="42.770190" lon="10.852390">
       <ele>6</ele>
       <time>2014-11-04T19:02:51Z</time>
      </trkpt>
      <trkpt lat="42.770020" lon="10.852730">
       <ele>5</ele>
       <time>2014-11-04T19:02:56Z</time>
      </trkpt>
      <trkpt lat="42.769970" lon="10.852940">
       <ele>6</ele>
       <time>2014-11-04T19:02:59Z</time>
      </trkpt>
      <trkpt lat="42.769930" lon="10.853220">
       <ele>6</ele>
       <time>2014-11-04T19:03:02Z</time>
      </trkpt>
      <trkpt lat="42.769950" lon="10.853400">
       <ele>6</ele>
       <time>2014-11-04T19:03:04Z</time>
      </trkpt>
      <trkpt lat="42.769950" lon="10.853700">
       <ele>6</ele>
       <time>2014-11-04T19:03:08Z</time>
      </trkpt>
      <trkpt lat="42.769920" lon="10.853840">
       <ele>7</ele>
       <time>2014-11-04T19:03:10Z</time>
      </trkpt>
      <trkpt lat="42.769920" lon="10.853920">
       <ele>7</ele>
       <time>2014-11-04T19:03:11Z</time>
      </trkpt>
      <trkpt lat="42.769850" lon="10.854140">
       <ele>7</ele>
       <time>2014-11-04T19:03:14Z</time>
      </trkpt>
      <trkpt lat="42.769500" lon="10.854970">
       <ele>9</ele>
       <time>2014-11-04T19:03:25Z</time>
      </trkpt>
      <trkpt lat="42.768100" lon="10.858500">
       <ele>9</ele>
       <time>2014-11-04T19:04:14Z</time>
      </trkpt>
      <trkpt lat="42.767390" lon="10.860720">
       <ele>12</ele>
       <time>2014-11-04T19:04:44Z</time>
      </trkpt>
      <trkpt lat="42.766100" lon="10.865810">
       <ele>6</ele>
       <time>2014-11-04T19:05:49Z</time>
      </trkpt>
      <trkpt lat="42.765480" lon="10.868360">
       <ele>5</ele>
       <time>2014-11-04T19:06:22Z</time>
      </trkpt>
      <trkpt lat="42.765540" lon="10.868390">
       <ele>5</ele>
       <time>2014-11-04T19:06:23Z</time>
      </trkpt>
      <trkpt lat="42.765240" lon="10.869550">
       <ele>7</ele>
       <time>2014-11-04T19:06:38Z</time>
      </trkpt>
      <trkpt lat="42.764580" lon="10.872240">
       <ele>6</ele>
       <time>2014-11-04T19:07:13Z</time>
      </trkpt>
      <trkpt lat="42.763980" lon="10.874520">
       <ele>5</ele>
       <time>2014-11-04T19:07:42Z</time>
      </trkpt>
      <trkpt lat="42.763840" lon="10.874950">
       <ele>5</ele>
       <time>2014-11-04T19:07:48Z</time>
      </trkpt>
      <trkpt lat="42.763720" lon="10.875240">
       <ele>6</ele>
       <time>2014-11-04T19:07:52Z</time>
      </trkpt>
      <trkpt lat="42.762030" lon="10.879190">
       <ele>8</ele>
       <time>2014-11-04T19:08:48Z</time>
      </trkpt>
      <trkpt lat="42.762000" lon="10.879370">
       <ele>7</ele>
       <time>2014-11-04T19:08:50Z</time>
      </trkpt>
      <trkpt lat="42.762030" lon="10.879730">
       <ele>7</ele>
       <time>2014-11-04T19:08:54Z</time>
      </trkpt>
      <trkpt lat="42.762130" lon="10.880110">
       <ele>8</ele>
       <time>2014-11-04T19:08:59Z</time>
      </trkpt>
      <trkpt lat="42.762270" lon="10.880880">
       <ele>4</ele>
       <time>2014-11-04T19:09:09Z</time>
      </trkpt>
      <trkpt lat="42.762740" lon="10.882150">
       <ele>2</ele>
       <time>2014-11-04T19:09:26Z</time>
      </trkpt>
      <trkpt lat="42.762810" lon="10.882270">
       <ele>2</ele>
       <time>2014-11-04T19:09:28Z</time>
      </trkpt>
      <trkpt lat="42.763060" lon="10.882530">
       <ele>2</ele>
       <time>2014-11-04T19:09:33Z</time>
      </trkpt>
      <trkpt lat="42.763210" lon="10.882790">
       <ele>3</ele>
       <time>2014-11-04T19:09:37Z</time>
      </trkpt>
      <trkpt lat="42.763270" lon="10.882990">
       <ele>3</ele>
       <time>2014-11-04T19:09:40Z</time>
      </trkpt>
      <trkpt lat="42.763320" lon="10.883260">
       <ele>3</ele>
       <time>2014-11-04T19:09:43Z</time>
      </trkpt>
      <trkpt lat="42.763420" lon="10.883530">
       <ele>3</ele>
       <time>2014-11-04T19:09:47Z</time>
      </trkpt>
      <trkpt lat="42.763630" lon="10.883900">
       <ele>3</ele>
       <time>2014-11-04T19:09:53Z</time>
      </trkpt>
      <trkpt lat="42.763820" lon="10.884180">
       <ele>2</ele>
       <time>2014-11-04T19:09:57Z</time>
      </trkpt>
      <trkpt lat="42.763800" lon="10.884250">
       <ele>2</ele>
       <time>2014-11-04T19:09:58Z</time>
      </trkpt>
      <trkpt lat="42.763800" lon="10.884330">
       <ele>2</ele>
       <time>2014-11-04T19:09:59Z</time>
      </trkpt>
      <trkpt lat="42.763790" lon="10.884360">
       <ele>2</ele>
       <time>2014-11-04T19:10:00Z</time>
      </trkpt>
      <trkpt lat="42.761860" lon="10.885820">
       <ele>4</ele>
       <time>2014-11-04T19:10:36Z</time>
      </trkpt>
      <trkpt lat="42.761680" lon="10.885990">
       <ele>5</ele>
       <time>2014-11-04T19:10:40Z</time>
      </trkpt>
      <trkpt lat="42.761600" lon="10.886090">
       <ele>5</ele>
       <time>2014-11-04T19:10:42Z</time>
      </trkpt>
      <trkpt lat="42.761470" lon="10.886350">
       <ele>5</ele>
       <time>2014-11-04T19:10:45Z</time>
      </trkpt>
      <trkpt lat="42.761370" lon="10.886720">
       <ele>5</ele>
       <time>2014-11-04T19:10:50Z</time>
      </trkpt>
      <trkpt lat="42.761250" lon="10.888750">
       <ele>7</ele>
       <time>2014-11-04T19:11:15Z</time>
      </trkpt>
      <trkpt lat="42.761160" lon="10.890780">
       <ele>7</ele>
       <time>2014-11-04T19:11:40Z</time>
      </trkpt>
      <trkpt lat="42.761130" lon="10.891080">
       <ele>8</ele>
       <time>2014-11-04T19:11:43Z</time>
      </trkpt>
      <trkpt lat="42.761050" lon="10.891510">
       <ele>8</ele>
       <time>2014-11-04T19:11:49Z</time>
      </trkpt>
      <trkpt lat="42.761000" lon="10.891500">
       <ele>8</ele>
       <time>2014-11-04T19:11:50Z</time>
      </trkpt>
      <trkpt lat="42.760070" lon="10.896030">
       <ele>8</ele>
       <time>2014-11-04T19:12:47Z</time>
      </trkpt>
      <trkpt lat="42.758590" lon="10.903780">
       <ele>8</ele>
       <time>2014-11-04T19:14:24Z</time>
      </trkpt>
      <trkpt lat="42.757690" lon="10.908310">
       <ele>6</ele>
       <time>2014-11-04T19:15:22Z</time>
      </trkpt>
      <trkpt lat="42.755810" lon="10.918140">
       <ele>8</ele>
       <time>2014-11-04T19:17:25Z</time>
      </trkpt>
      <trkpt lat="42.755690" lon="10.918570">
       <ele>8</ele>
       <time>2014-11-04T19:17:31Z</time>
      </trkpt>
      <trkpt lat="42.755500" lon="10.919130">
       <ele>9</ele>
       <time>2014-11-04T19:17:38Z</time>
      </trkpt>
      <trkpt lat="42.753970" lon="10.922670">
       <ele>7</ele>
       <time>2014-11-04T19:18:29Z</time>
      </trkpt>
      <trkpt lat="42.753410" lon="10.924070">
       <ele>5</ele>
       <time>2014-11-04T19:18:48Z</time>
      </trkpt>
      <trkpt lat="42.749180" lon="10.934310">
       <ele>8</ele>
       <time>2014-11-04T19:21:11Z</time>
      </trkpt>
      <trkpt lat="42.748560" lon="10.935700">
       <ele>7</ele>
       <time>2014-11-04T19:21:31Z</time>
      </trkpt>
      <trkpt lat="42.747970" lon="10.937200">
       <ele>6</ele>
       <time>2014-11-04T19:21:52Z</time>
      </trkpt>
      <trkpt lat="42.747790" lon="10.937580">
       <ele>6</ele>
       <time>2014-11-04T19:21:57Z</time>
      </trkpt>
      <trkpt lat="42.747280" lon="10.938900">
       <ele>8</ele>
       <time>2014-11-04T19:22:15Z</time>
      </trkpt>
      <trkpt lat="42.746250" lon="10.941340">
       <ele>8</ele>
       <time>2014-11-04T19:22:50Z</time>
      </trkpt>
      <trkpt lat="42.745650" lon="10.942850">
       <ele>9</ele>
       <time>2014-11-04T19:23:10Z</time>
      </trkpt>
      <trkpt lat="42.744910" lon="10.944590">
       <ele>9</ele>
       <time>2014-11-04T19:23:35Z</time>
      </trkpt>
      <trkpt lat="42.744730" lon="10.945070">
       <ele>10</ele>
       <time>2014-11-04T19:23:42Z</time>
      </trkpt>
      <trkpt lat="42.742820" lon="10.949580">
       <ele>9</ele>
       <time>2014-11-04T19:24:45Z</time>
      </trkpt>
      <trkpt lat="42.741890" lon="10.951850">
       <ele>11</ele>
       <time>2014-11-04T19:25:17Z</time>
      </trkpt>
      <trkpt lat="42.740520" lon="10.955100">
       <ele>10</ele>
       <time>2014-11-04T19:26:02Z</time>
      </trkpt>
      <trkpt lat="42.739750" lon="10.956990">
       <ele>9</ele>
       <time>2014-11-04T19:26:29Z</time>
      </trkpt>
      <trkpt lat="42.738430" lon="10.960110">
       <ele>9</ele>
       <time>2014-11-04T19:27:12Z</time>
      </trkpt>
      <trkpt lat="42.736530" lon="10.964970">
       <ele>8</ele>
       <time>2014-11-04T19:28:20Z</time>
      </trkpt>
      <trkpt lat="42.736030" lon="10.966360">
       <ele>5</ele>
       <time>2014-11-04T19:28:38Z</time>
      </trkpt>
      <trkpt lat="42.736060" lon="10.966380">
       <ele>5</ele>
       <time>2014-11-04T19:28:39Z</time>
      </trkpt>
      <trkpt lat="42.735370" lon="10.968160">
       <ele>6</ele>
       <time>2014-11-04T19:29:03Z</time>
      </trkpt>
      <trkpt lat="42.735350" lon="10.968270">
       <ele>7</ele>
       <time>2014-11-04T19:29:05Z</time>
      </trkpt>
      <trkpt lat="42.734190" lon="10.971220">
       <ele>7</ele>
       <time>2014-11-04T19:29:46Z</time>
      </trkpt>
      <trkpt lat="42.732260" lon="10.976230">
       <ele>6</ele>
       <time>2014-11-04T19:30:55Z</time>
      </trkpt>
      <trkpt lat="42.730300" lon="10.981420">
       <ele>7</ele>
       <time>2014-11-04T19:32:06Z</time>
      </trkpt>
      <trkpt lat="42.729770" lon="10.982750">
       <ele>8</ele>
       <time>2014-11-04T19:32:24Z</time>
      </trkpt>
      <trkpt lat="42.728180" lon="10.986930">
       <ele>6</ele>
       <time>2014-11-04T19:33:21Z</time>
      </trkpt>
      <trkpt lat="42.728030" lon="10.987280">
       <ele>7</ele>
       <time>2014-11-04T19:33:26Z</time>
      </trkpt>
      <trkpt lat="42.727030" lon="10.989150">
       <ele>8</ele>
       <time>2014-11-04T19:33:55Z</time>
      </trkpt>
      <trkpt lat="42.722988" lon="10.996850">
       <ele>6</ele>
       <time>2014-11-04T19:35:50Z</time>
      </trkpt>
      <trkpt lat="42.722991" lon="10.996830">
       <ele>6</ele>
       <time>2014-11-04T19:35:50Z</time>
      </trkpt>
      <trkpt lat="42.722892" lon="10.997050">
       <ele>5.67</ele>
       <time>2014-11-04T19:35:53Z</time>
      </trkpt>
      <trkpt lat="42.722755" lon="10.997254">
       <ele>5.67</ele>
       <time>2014-11-04T19:35:57Z</time>
      </trkpt>
      <trkpt lat="42.722511" lon="10.997473">
       <ele>6.02</ele>
       <time>2014-11-04T19:36:01Z</time>
      </trkpt>
      <trkpt lat="42.721488" lon="10.998327">
       <ele>7.44</ele>
       <time>2014-11-04T19:36:21Z</time>
      </trkpt>
      <trkpt lat="42.719039" lon="11.000117">
       <ele>7.2</ele>
       <time>2014-11-04T19:37:07Z</time>
      </trkpt>
      <trkpt lat="42.718822" lon="11.000308">
       <ele>7.59</ele>
       <time>2014-11-04T19:37:12Z</time>
      </trkpt>
      <trkpt lat="42.718627" lon="11.000529">
       <ele>7.69</ele>
       <time>2014-11-04T19:37:16Z</time>
      </trkpt>
      <trkpt lat="42.718437" lon="11.000793">
       <ele>7.57</ele>
       <time>2014-11-04T19:37:20Z</time>
      </trkpt>
      <trkpt lat="42.716300" lon="11.004576">
       <ele>9.71</ele>
       <time>2014-11-04T19:38:19Z</time>
      </trkpt>
      <trkpt lat="42.714038" lon="11.008684">
       <ele>9.24</ele>
       <time>2014-11-04T19:39:21Z</time>
      </trkpt>
      <trkpt lat="42.713954" lon="11.008579">
       <ele>9.85</ele>
       <time>2014-11-04T19:39:23Z</time>
      </trkpt>
    </trkseg>
  </trk>
</gpx>
